<?xml version="1.0" encoding="UTF-8" standalone="no" ?>
<gpx xmlns="http://www.topografix.com/GPX/1/1" xmlns:xsi="http://www.w3.org/2001/XMLSchema-instance" xsi:schemaLocation="http://www.topografix.com/GPX/1/1 http://www.topografix.com/GPX/1/1/gpx.xsd" version="1.1" creator="VisuGPX - https://www.visugpx.com">
  <metadata>
    <name>St Fortunat AL1</name>
  </metadata>
  <trk>
    <name><![CDATA[2021-03-21 09:08:51]]></name>
    <extensions>
      <line xmlns="http://www.topografix.com/GPX/gpx_style/0/2">
        <color>0000FF</color>
        <opacity>0.59</opacity>
        <width>6</width>
      </line>
    </extensions>
    <trkseg>
      <trkpt lat="44.82692" lon="4.67731">
        <ele>138.22</ele>
        <time>2021-03-21T08:08:51.807Z</time>
      </trkpt>
      <trkpt lat="44.82711" lon="4.67721">
        <ele>137.14</ele>
        <time>2021-03-21T08:09:10.067Z</time>
      </trkpt>
      <trkpt lat="44.82743" lon="4.67704">
        <ele>136.69</ele>
        <time>2021-03-21T08:09:37.999Z</time>
      </trkpt>
      <trkpt lat="44.82765" lon="4.67693">
        <ele>137.41</ele>
        <time>2021-03-21T08:09:57.643Z</time>
      </trkpt>
      <trkpt lat="44.82792" lon="4.67678">
        <ele>139.86</ele>
        <time>2021-03-21T08:10:16.388Z</time>
      </trkpt>
      <trkpt lat="44.82813" lon="4.67666">
        <ele>142.33</ele>
        <time>2021-03-21T08:10:35.358Z</time>
      </trkpt>
      <trkpt lat="44.82851" lon="4.67647">
        <ele>145.46</ele>
        <time>2021-03-21T08:11:03.382Z</time>
      </trkpt>
      <trkpt lat="44.82873" lon="4.67631">
        <ele>147.03</ele>
        <time>2021-03-21T08:11:22.999Z</time>
      </trkpt>
      <trkpt lat="44.82898" lon="4.67617">
        <ele>148.79</ele>
        <time>2021-03-21T08:11:41.960Z</time>
      </trkpt>
      <trkpt lat="44.82917" lon="4.67642">
        <ele>148.92</ele>
        <time>2021-03-21T08:12:00.369Z</time>
      </trkpt>
      <trkpt lat="44.82937" lon="4.67689">
        <ele>147.85</ele>
        <time>2021-03-21T08:12:28.947Z</time>
      </trkpt>
      <trkpt lat="44.82949" lon="4.67722">
        <ele>147.52</ele>
        <time>2021-03-21T08:12:47.743Z</time>
      </trkpt>
      <trkpt lat="44.82957" lon="4.67746">
        <ele>147.58</ele>
        <time>2021-03-21T08:13:06.142Z</time>
      </trkpt>
      <trkpt lat="44.82967" lon="4.67778">
        <ele>147.61</ele>
        <time>2021-03-21T08:13:24.701Z</time>
      </trkpt>
      <trkpt lat="44.82958" lon="4.67811">
        <ele>146.16</ele>
        <time>2021-03-21T08:13:43.769Z</time>
      </trkpt>
      <trkpt lat="44.82957" lon="4.67862">
        <ele>145.39</ele>
        <time>2021-03-21T08:14:11.575Z</time>
      </trkpt>
      <trkpt lat="44.82957" lon="4.67898">
        <ele>145.31</ele>
        <time>2021-03-21T08:14:30.570Z</time>
      </trkpt>
      <trkpt lat="44.82957" lon="4.67929">
        <ele>145.24</ele>
        <time>2021-03-21T08:14:51.000Z</time>
      </trkpt>
      <trkpt lat="44.82956" lon="4.67964">
        <ele>145.3</ele>
        <time>2021-03-21T08:15:09.825Z</time>
      </trkpt>
      <trkpt lat="44.82964" lon="4.68013">
        <ele>146.94</ele>
        <time>2021-03-21T08:15:38.263Z</time>
      </trkpt>
      <trkpt lat="44.82972" lon="4.68048">
        <ele>148.48</ele>
        <time>2021-03-21T08:15:58.000Z</time>
      </trkpt>
      <trkpt lat="44.82977" lon="4.68082">
        <ele>149.2</ele>
        <time>2021-03-21T08:16:18.000Z</time>
      </trkpt>
      <trkpt lat="44.82977" lon="4.68111">
        <ele>148.68</ele>
        <time>2021-03-21T08:16:36.104Z</time>
      </trkpt>
      <trkpt lat="44.82987" lon="4.68148">
        <ele>149.59</ele>
        <time>2021-03-21T08:17:04.000Z</time>
      </trkpt>
      <trkpt lat="44.82986" lon="4.68184">
        <ele>149.17</ele>
        <time>2021-03-21T08:17:22.278Z</time>
      </trkpt>
      <trkpt lat="44.82995" lon="4.68208">
        <ele>151.38</ele>
        <time>2021-03-21T08:17:41.408Z</time>
      </trkpt>
      <trkpt lat="44.83004" lon="4.68223">
        <ele>154.23</ele>
        <time>2021-03-21T08:18:00.000Z</time>
      </trkpt>
      <trkpt lat="44.83012" lon="4.68222">
        <ele>156.63</ele>
        <time>2021-03-21T08:18:29.000Z</time>
      </trkpt>
      <trkpt lat="44.83028" lon="4.68228">
        <ele>162.18</ele>
        <time>2021-03-21T08:18:47.726Z</time>
      </trkpt>
      <trkpt lat="44.83036" lon="4.68235">
        <ele>166.13</ele>
        <time>2021-03-21T08:19:07.000Z</time>
      </trkpt>
      <trkpt lat="44.83042" lon="4.68232">
        <ele>167.95</ele>
        <time>2021-03-21T08:19:27.000Z</time>
      </trkpt>
      <trkpt lat="44.83054" lon="4.68245">
        <ele>174.61</ele>
        <time>2021-03-21T08:19:56.646Z</time>
      </trkpt>
      <trkpt lat="44.83062" lon="4.68255">
        <ele>179.3</ele>
        <time>2021-03-21T08:20:16.907Z</time>
      </trkpt>
      <trkpt lat="44.83074" lon="4.68261">
        <ele>185.52</ele>
        <time>2021-03-21T08:20:35.962Z</time>
      </trkpt>
      <trkpt lat="44.83081" lon="4.68257">
        <ele>187.65</ele>
        <time>2021-03-21T08:20:56.000Z</time>
      </trkpt>
      <trkpt lat="44.83084" lon="4.68272">
        <ele>192.26</ele>
        <time>2021-03-21T08:21:15.932Z</time>
      </trkpt>
      <trkpt lat="44.83094" lon="4.68272">
        <ele>196.12</ele>
        <time>2021-03-21T08:21:45.000Z</time>
      </trkpt>
      <trkpt lat="44.83097" lon="4.68281">
        <ele>199.32</ele>
        <time>2021-03-21T08:22:04.000Z</time>
      </trkpt>
      <trkpt lat="44.83104" lon="4.68283">
        <ele>202.84</ele>
        <time>2021-03-21T08:22:23.000Z</time>
      </trkpt>
      <trkpt lat="44.83113" lon="4.68287">
        <ele>207.28</ele>
        <time>2021-03-21T08:22:43.000Z</time>
      </trkpt>
      <trkpt lat="44.83122" lon="4.68298">
        <ele>213.42</ele>
        <time>2021-03-21T08:23:11.686Z</time>
      </trkpt>
      <trkpt lat="44.83129" lon="4.68307">
        <ele>217.85</ele>
        <time>2021-03-21T08:23:31.923Z</time>
      </trkpt>
      <trkpt lat="44.83133" lon="4.6832">
        <ele>222.37</ele>
        <time>2021-03-21T08:23:50.907Z</time>
      </trkpt>
      <trkpt lat="44.83135" lon="4.68329">
        <ele>224.78</ele>
        <time>2021-03-21T08:24:10.821Z</time>
      </trkpt>
      <trkpt lat="44.83151" lon="4.6832">
        <ele>227.91</ele>
        <time>2021-03-21T08:24:40.999Z</time>
      </trkpt>
      <trkpt lat="44.83163" lon="4.68318">
        <ele>230.77</ele>
        <time>2021-03-21T08:25:00.734Z</time>
      </trkpt>
      <trkpt lat="44.83177" lon="4.6833">
        <ele>237.11</ele>
        <time>2021-03-21T08:25:18.999Z</time>
      </trkpt>
      <trkpt lat="44.83182" lon="4.6835">
        <ele>241.85</ele>
        <time>2021-03-21T08:25:38.999Z</time>
      </trkpt>
      <trkpt lat="44.83201" lon="4.68373">
        <ele>250</ele>
        <time>2021-03-21T08:26:08.806Z</time>
      </trkpt>
      <trkpt lat="44.83207" lon="4.68385">
        <ele>253.31</ele>
        <time>2021-03-21T08:26:27.804Z</time>
      </trkpt>
      <trkpt lat="44.8322" lon="4.68395">
        <ele>257.19</ele>
        <time>2021-03-21T08:26:46.861Z</time>
      </trkpt>
      <trkpt lat="44.83226" lon="4.68412">
        <ele>261.03</ele>
        <time>2021-03-21T08:27:05.759Z</time>
      </trkpt>
      <trkpt lat="44.83231" lon="4.68429">
        <ele>264.76</ele>
        <time>2021-03-21T08:28:14.999Z</time>
      </trkpt>
      <trkpt lat="44.83233" lon="4.68433">
        <ele>265.72</ele>
        <time>2021-03-21T08:30:18.000Z</time>
      </trkpt>
      <trkpt lat="44.83239" lon="4.68444">
        <ele>268.38</ele>
        <time>2021-03-21T08:31:01.000Z</time>
      </trkpt>
      <trkpt lat="44.83252" lon="4.68466">
        <ele>274.17</ele>
        <time>2021-03-21T08:31:21.000Z</time>
      </trkpt>
      <trkpt lat="44.83266" lon="4.68474">
        <ele>277.77</ele>
        <time>2021-03-21T08:31:40.000Z</time>
      </trkpt>
      <trkpt lat="44.83275" lon="4.68499">
        <ele>282.97</ele>
        <time>2021-03-21T08:32:11.000Z</time>
      </trkpt>
      <trkpt lat="44.83263" lon="4.68512">
        <ele>282.91</ele>
        <time>2021-03-21T08:32:56.566Z</time>
      </trkpt>
      <trkpt lat="44.83248" lon="4.6854">
        <ele>284.63</ele>
        <time>2021-03-21T08:33:15.643Z</time>
      </trkpt>
      <trkpt lat="44.83236" lon="4.68565">
        <ele>286.37</ele>
        <time>2021-03-21T08:33:34.158Z</time>
      </trkpt>
      <trkpt lat="44.83219" lon="4.686">
        <ele>287.95</ele>
        <time>2021-03-21T08:34:03.000Z</time>
      </trkpt>
      <trkpt lat="44.83206" lon="4.68628">
        <ele>288.47</ele>
        <time>2021-03-21T08:34:23.000Z</time>
      </trkpt>
      <trkpt lat="44.83204" lon="4.68639">
        <ele>288.83</ele>
        <time>2021-03-21T08:34:42.603Z</time>
      </trkpt>
      <trkpt lat="44.83199" lon="4.68666">
        <ele>289.73</ele>
        <time>2021-03-21T08:35:01.000Z</time>
      </trkpt>
      <trkpt lat="44.83188" lon="4.68712">
        <ele>289.97</ele>
        <time>2021-03-21T08:35:28.876Z</time>
      </trkpt>
      <trkpt lat="44.83179" lon="4.68744">
        <ele>288.92</ele>
        <time>2021-03-21T08:35:48.999Z</time>
      </trkpt>
      <trkpt lat="44.83173" lon="4.68768">
        <ele>287.34</ele>
        <time>2021-03-21T08:36:07.999Z</time>
      </trkpt>
      <trkpt lat="44.83178" lon="4.68787">
        <ele>287.62</ele>
        <time>2021-03-21T08:36:36.999Z</time>
      </trkpt>
      <trkpt lat="44.83199" lon="4.68815">
        <ele>287.49</ele>
        <time>2021-03-21T08:37:05.215Z</time>
      </trkpt>
      <trkpt lat="44.83218" lon="4.68806">
        <ele>289.59</ele>
        <time>2021-03-21T08:37:23.999Z</time>
      </trkpt>
      <trkpt lat="44.83241" lon="4.688">
        <ele>292.11</ele>
        <time>2021-03-21T08:37:42.504Z</time>
      </trkpt>
      <trkpt lat="44.83259" lon="4.68814">
        <ele>292.36</ele>
        <time>2021-03-21T08:38:01.361Z</time>
      </trkpt>
      <trkpt lat="44.83286" lon="4.68841">
        <ele>291.74</ele>
        <time>2021-03-21T08:38:29.999Z</time>
      </trkpt>
      <trkpt lat="44.8331" lon="4.68849">
        <ele>293.99</ele>
        <time>2021-03-21T08:38:48.577Z</time>
      </trkpt>
      <trkpt lat="44.83327" lon="4.68843">
        <ele>297.81</ele>
        <time>2021-03-21T08:39:07.456Z</time>
      </trkpt>
      <trkpt lat="44.83352" lon="4.68833">
        <ele>301</ele>
        <time>2021-03-21T08:39:26.999Z</time>
      </trkpt>
      <trkpt lat="44.8337" lon="4.68824">
        <ele>302.29</ele>
        <time>2021-03-21T08:39:45.999Z</time>
      </trkpt>
      <trkpt lat="44.83403" lon="4.68811">
        <ele>302.53</ele>
        <time>2021-03-21T08:40:14.060Z</time>
      </trkpt>
      <trkpt lat="44.8342" lon="4.68797">
        <ele>305.27</ele>
        <time>2021-03-21T08:40:32.661Z</time>
      </trkpt>
      <trkpt lat="44.83435" lon="4.6879">
        <ele>305.46</ele>
        <time>2021-03-21T08:40:51.014Z</time>
      </trkpt>
      <trkpt lat="44.83455" lon="4.68775">
        <ele>306.54</ele>
        <time>2021-03-21T08:41:09.537Z</time>
      </trkpt>
      <trkpt lat="44.83481" lon="4.68754">
        <ele>306.71</ele>
        <time>2021-03-21T08:41:37.355Z</time>
      </trkpt>
      <trkpt lat="44.83491" lon="4.6874">
        <ele>307.97</ele>
        <time>2021-03-21T08:41:55.676Z</time>
      </trkpt>
      <trkpt lat="44.83509" lon="4.68708">
        <ele>312.86</ele>
        <time>2021-03-21T08:42:14.262Z</time>
      </trkpt>
      <trkpt lat="44.83523" lon="4.68673">
        <ele>318.76</ele>
        <time>2021-03-21T08:42:32.761Z</time>
      </trkpt>
      <trkpt lat="44.83548" lon="4.68654">
        <ele>319.86</ele>
        <time>2021-03-21T08:43:00.864Z</time>
      </trkpt>
      <trkpt lat="44.83572" lon="4.68663">
        <ele>315.65</ele>
        <time>2021-03-21T08:43:19.021Z</time>
      </trkpt>
      <trkpt lat="44.83596" lon="4.68667">
        <ele>316.36</ele>
        <time>2021-03-21T08:43:37.414Z</time>
      </trkpt>
      <trkpt lat="44.83613" lon="4.68667">
        <ele>319.93</ele>
        <time>2021-03-21T08:43:56.004Z</time>
      </trkpt>
      <trkpt lat="44.83648" lon="4.68691">
        <ele>323.86</ele>
        <time>2021-03-21T08:44:24.999Z</time>
      </trkpt>
      <trkpt lat="44.83653" lon="4.68719">
        <ele>318.4</ele>
        <time>2021-03-21T08:44:43.757Z</time>
      </trkpt>
      <trkpt lat="44.83666" lon="4.6875">
        <ele>314.6</ele>
        <time>2021-03-21T08:45:02.999Z</time>
      </trkpt>
      <trkpt lat="44.83678" lon="4.68759">
        <ele>316.48</ele>
        <time>2021-03-21T08:45:21.999Z</time>
      </trkpt>
      <trkpt lat="44.83707" lon="4.68784">
        <ele>319.83</ele>
        <time>2021-03-21T08:45:49.819Z</time>
      </trkpt>
      <trkpt lat="44.83732" lon="4.68792">
        <ele>326.28</ele>
        <time>2021-03-21T08:46:09.542Z</time>
      </trkpt>
      <trkpt lat="44.83748" lon="4.68807">
        <ele>327.77</ele>
        <time>2021-03-21T08:46:27.999Z</time>
      </trkpt>
      <trkpt lat="44.83762" lon="4.68834">
        <ele>327.08</ele>
        <time>2021-03-21T08:46:48.000Z</time>
      </trkpt>
      <trkpt lat="44.83775" lon="4.68856">
        <ele>329.12</ele>
        <time>2021-03-21T08:47:07.000Z</time>
      </trkpt>
      <trkpt lat="44.83782" lon="4.68856">
        <ele>332.6</ele>
        <time>2021-03-21T08:47:36.662Z</time>
      </trkpt>
      <trkpt lat="44.83791" lon="4.68861">
        <ele>336.44</ele>
        <time>2021-03-21T08:47:56.020Z</time>
      </trkpt>
      <trkpt lat="44.83788" lon="4.6889">
        <ele>331.11</ele>
        <time>2021-03-21T08:48:15.477Z</time>
      </trkpt>
      <trkpt lat="44.83788" lon="4.6892">
        <ele>328.97</ele>
        <time>2021-03-21T08:48:34.674Z</time>
      </trkpt>
      <trkpt lat="44.83789" lon="4.68964">
        <ele>328.39</ele>
        <time>2021-03-21T08:49:02.262Z</time>
      </trkpt>
      <trkpt lat="44.83794" lon="4.68991">
        <ele>331.66</ele>
        <time>2021-03-21T08:49:20.622Z</time>
      </trkpt>
      <trkpt lat="44.83793" lon="4.69024">
        <ele>332.06</ele>
        <time>2021-03-21T08:49:40.000Z</time>
      </trkpt>
      <trkpt lat="44.83795" lon="4.69057">
        <ele>334.36</ele>
        <time>2021-03-21T08:49:59.000Z</time>
      </trkpt>
      <trkpt lat="44.8379" lon="4.69102">
        <ele>334.69</ele>
        <time>2021-03-21T08:50:27.582Z</time>
      </trkpt>
      <trkpt lat="44.83781" lon="4.69124">
        <ele>331.99</ele>
        <time>2021-03-21T08:50:46.102Z</time>
      </trkpt>
      <trkpt lat="44.83771" lon="4.6915">
        <ele>328.76</ele>
        <time>2021-03-21T08:51:05.140Z</time>
      </trkpt>
      <trkpt lat="44.83768" lon="4.69186">
        <ele>327.77</ele>
        <time>2021-03-21T08:51:25.000Z</time>
      </trkpt>
      <trkpt lat="44.83783" lon="4.69229">
        <ele>330.93</ele>
        <time>2021-03-21T08:51:54.759Z</time>
      </trkpt>
      <trkpt lat="44.83797" lon="4.69249">
        <ele>334.45</ele>
        <time>2021-03-21T08:52:14.000Z</time>
      </trkpt>
      <trkpt lat="44.83811" lon="4.69269">
        <ele>336.17</ele>
        <time>2021-03-21T08:52:34.000Z</time>
      </trkpt>
      <trkpt lat="44.83812" lon="4.69275">
        <ele>335.5</ele>
        <time>2021-03-21T08:53:46.000Z</time>
      </trkpt>
      <trkpt lat="44.83794" lon="4.69314">
        <ele>327.73</ele>
        <time>2021-03-21T08:54:13.659Z</time>
      </trkpt>
      <trkpt lat="44.83786" lon="4.69322">
        <ele>326.53</ele>
        <time>2021-03-21T08:54:37.000Z</time>
      </trkpt>
      <trkpt lat="44.83763" lon="4.69335">
        <ele>325.24</ele>
        <time>2021-03-21T08:54:55.473Z</time>
      </trkpt>
      <trkpt lat="44.83736" lon="4.69341">
        <ele>323.26</ele>
        <time>2021-03-21T08:55:14.333Z</time>
      </trkpt>
      <trkpt lat="44.83719" lon="4.69348">
        <ele>321.96</ele>
        <time>2021-03-21T08:55:32.980Z</time>
      </trkpt>
      <trkpt lat="44.83691" lon="4.6937">
        <ele>321.63</ele>
        <time>2021-03-21T08:56:01.000Z</time>
      </trkpt>
      <trkpt lat="44.83672" lon="4.69388">
        <ele>322.05</ele>
        <time>2021-03-21T08:56:19.817Z</time>
      </trkpt>
      <trkpt lat="44.83651" lon="4.69391">
        <ele>319.47</ele>
        <time>2021-03-21T08:56:38.136Z</time>
      </trkpt>
      <trkpt lat="44.83634" lon="4.694">
        <ele>318.1</ele>
        <time>2021-03-21T08:56:58.000Z</time>
      </trkpt>
      <trkpt lat="44.83602" lon="4.69415">
        <ele>314.27</ele>
        <time>2021-03-21T08:57:26.060Z</time>
      </trkpt>
      <trkpt lat="44.83578" lon="4.69425">
        <ele>309.46</ele>
        <time>2021-03-21T08:57:45.259Z</time>
      </trkpt>
      <trkpt lat="44.83564" lon="4.69435">
        <ele>306.19</ele>
        <time>2021-03-21T08:58:04.038Z</time>
      </trkpt>
      <trkpt lat="44.83549" lon="4.69446">
        <ele>301.97</ele>
        <time>2021-03-21T08:58:22.720Z</time>
      </trkpt>
      <trkpt lat="44.83559" lon="4.69492">
        <ele>306.52</ele>
        <time>2021-03-21T08:58:51.345Z</time>
      </trkpt>
      <trkpt lat="44.83557" lon="4.69513">
        <ele>305.77</ele>
        <time>2021-03-21T08:59:10.999Z</time>
      </trkpt>
      <trkpt lat="44.83545" lon="4.69543">
        <ele>301.9</ele>
        <time>2021-03-21T08:59:29.721Z</time>
      </trkpt>
      <trkpt lat="44.83527" lon="4.69572">
        <ele>296.63</ele>
        <time>2021-03-21T08:59:48.499Z</time>
      </trkpt>
      <trkpt lat="44.83502" lon="4.69596">
        <ele>291.2</ele>
        <time>2021-03-21T09:00:16.426Z</time>
      </trkpt>
      <trkpt lat="44.83496" lon="4.69625">
        <ele>294.66</ele>
        <time>2021-03-21T09:00:34.682Z</time>
      </trkpt>
      <trkpt lat="44.83487" lon="4.69652">
        <ele>296.58</ele>
        <time>2021-03-21T09:00:53.442Z</time>
      </trkpt>
      <trkpt lat="44.83473" lon="4.69685">
        <ele>295.07</ele>
        <time>2021-03-21T09:01:11.900Z</time>
      </trkpt>
      <trkpt lat="44.8345" lon="4.69699">
        <ele>290.24</ele>
        <time>2021-03-21T09:01:40.999Z</time>
      </trkpt>
      <trkpt lat="44.83428" lon="4.69688">
        <ele>283.89</ele>
        <time>2021-03-21T09:02:00.234Z</time>
      </trkpt>
      <trkpt lat="44.83407" lon="4.69686">
        <ele>278.89</ele>
        <time>2021-03-21T09:02:18.969Z</time>
      </trkpt>
      <trkpt lat="44.83387" lon="4.69691">
        <ele>275.24</ele>
        <time>2021-03-21T09:02:38.041Z</time>
      </trkpt>
      <trkpt lat="44.83377" lon="4.69717">
        <ele>277.62</ele>
        <time>2021-03-21T09:02:56.500Z</time>
      </trkpt>
      <trkpt lat="44.83354" lon="4.69738">
        <ele>276.59</ele>
        <time>2021-03-21T09:03:25.825Z</time>
      </trkpt>
      <trkpt lat="44.83328" lon="4.69745">
        <ele>274.04</ele>
        <time>2021-03-21T09:03:44.781Z</time>
      </trkpt>
      <trkpt lat="44.83303" lon="4.69739">
        <ele>271.64</ele>
        <time>2021-03-21T09:04:03.500Z</time>
      </trkpt>
      <trkpt lat="44.83282" lon="4.69732">
        <ele>270.36</ele>
        <time>2021-03-21T09:04:22.959Z</time>
      </trkpt>
      <trkpt lat="44.83248" lon="4.69722">
        <ele>269.26</ele>
        <time>2021-03-21T09:04:50.355Z</time>
      </trkpt>
      <trkpt lat="44.83228" lon="4.69716">
        <ele>269.15</ele>
        <time>2021-03-21T09:05:09.999Z</time>
      </trkpt>
      <trkpt lat="44.83209" lon="4.69706">
        <ele>269.39</ele>
        <time>2021-03-21T09:05:29.483Z</time>
      </trkpt>
      <trkpt lat="44.83192" lon="4.69709">
        <ele>269.82</ele>
        <time>2021-03-21T09:05:47.999Z</time>
      </trkpt>
      <trkpt lat="44.83164" lon="4.6971">
        <ele>268.41</ele>
        <time>2021-03-21T09:06:15.999Z</time>
      </trkpt>
      <trkpt lat="44.83149" lon="4.69722">
        <ele>266.01</ele>
        <time>2021-03-21T09:06:34.999Z</time>
      </trkpt>
      <trkpt lat="44.83138" lon="4.6974">
        <ele>263.06</ele>
        <time>2021-03-21T09:06:53.999Z</time>
      </trkpt>
      <trkpt lat="44.83119" lon="4.69752">
        <ele>258.83</ele>
        <time>2021-03-21T09:07:12.999Z</time>
      </trkpt>
      <trkpt lat="44.8309" lon="4.69757">
        <ele>254.16</ele>
        <time>2021-03-21T09:07:41.140Z</time>
      </trkpt>
      <trkpt lat="44.83069" lon="4.69771">
        <ele>249.75</ele>
        <time>2021-03-21T09:07:59.819Z</time>
      </trkpt>
      <trkpt lat="44.83046" lon="4.69774">
        <ele>247.46</ele>
        <time>2021-03-21T09:08:19.497Z</time>
      </trkpt>
      <trkpt lat="44.83024" lon="4.69766">
        <ele>246.36</ele>
        <time>2021-03-21T09:08:38.814Z</time>
      </trkpt>
      <trkpt lat="44.82995" lon="4.69753">
        <ele>243.13</ele>
        <time>2021-03-21T09:09:06.842Z</time>
      </trkpt>
      <trkpt lat="44.82985" lon="4.6974">
        <ele>240.77</ele>
        <time>2021-03-21T09:09:26.999Z</time>
      </trkpt>
      <trkpt lat="44.82975" lon="4.69725">
        <ele>236.91</ele>
        <time>2021-03-21T09:09:47.000Z</time>
      </trkpt>
      <trkpt lat="44.82958" lon="4.6973">
        <ele>234.34</ele>
        <time>2021-03-21T09:10:05.333Z</time>
      </trkpt>
      <trkpt lat="44.82942" lon="4.69746">
        <ele>232.41</ele>
        <time>2021-03-21T09:10:23.764Z</time>
      </trkpt>
      <trkpt lat="44.82917" lon="4.69739">
        <ele>226.99</ele>
        <time>2021-03-21T09:10:52.000Z</time>
      </trkpt>
      <trkpt lat="44.829" lon="4.69733">
        <ele>223.18</ele>
        <time>2021-03-21T09:11:10.255Z</time>
      </trkpt>
      <trkpt lat="44.82879" lon="4.69725">
        <ele>218.74</ele>
        <time>2021-03-21T09:11:30.000Z</time>
      </trkpt>
      <trkpt lat="44.82862" lon="4.69719">
        <ele>215.42</ele>
        <time>2021-03-21T09:11:48.543Z</time>
      </trkpt>
      <trkpt lat="44.82832" lon="4.69715">
        <ele>210.25</ele>
        <time>2021-03-21T09:12:16.459Z</time>
      </trkpt>
      <trkpt lat="44.82811" lon="4.69717">
        <ele>206.1</ele>
        <time>2021-03-21T09:12:36.000Z</time>
      </trkpt>
      <trkpt lat="44.82793" lon="4.69719">
        <ele>202.47</ele>
        <time>2021-03-21T09:12:55.000Z</time>
      </trkpt>
      <trkpt lat="44.82785" lon="4.69718">
        <ele>200.66</ele>
        <time>2021-03-21T09:13:15.743Z</time>
      </trkpt>
      <trkpt lat="44.82776" lon="4.69707">
        <ele>198.63</ele>
        <time>2021-03-21T09:14:10.000Z</time>
      </trkpt>
      <trkpt lat="44.82762" lon="4.69724">
        <ele>195.8</ele>
        <time>2021-03-21T09:14:28.997Z</time>
      </trkpt>
      <trkpt lat="44.82743" lon="4.69723">
        <ele>191.83</ele>
        <time>2021-03-21T09:14:47.622Z</time>
      </trkpt>
      <trkpt lat="44.82727" lon="4.69738">
        <ele>187.69</ele>
        <time>2021-03-21T09:15:07.000Z</time>
      </trkpt>
      <trkpt lat="44.82704" lon="4.69742">
        <ele>182.45</ele>
        <time>2021-03-21T09:15:35.400Z</time>
      </trkpt>
      <trkpt lat="44.82694" lon="4.69758">
        <ele>178.3</ele>
        <time>2021-03-21T09:15:54.000Z</time>
      </trkpt>
      <trkpt lat="44.8268" lon="4.69765">
        <ele>174.35</ele>
        <time>2021-03-21T09:16:13.000Z</time>
      </trkpt>
      <trkpt lat="44.82671" lon="4.69768">
        <ele>172.15</ele>
        <time>2021-03-21T09:16:32.845Z</time>
      </trkpt>
      <trkpt lat="44.82655" lon="4.69779">
        <ele>166.88</ele>
        <time>2021-03-21T09:17:01.000Z</time>
      </trkpt>
      <trkpt lat="44.82645" lon="4.69784">
        <ele>164.04</ele>
        <time>2021-03-21T09:17:22.000Z</time>
      </trkpt>
      <trkpt lat="44.82626" lon="4.69777">
        <ele>161.56</ele>
        <time>2021-03-21T09:17:40.620Z</time>
      </trkpt>
      <trkpt lat="44.82616" lon="4.69777">
        <ele>159.69</ele>
        <time>2021-03-21T09:17:59.000Z</time>
      </trkpt>
      <trkpt lat="44.8262" lon="4.69777">
        <ele>160.43</ele>
        <time>2021-03-21T09:18:22.000Z</time>
      </trkpt>
      <trkpt lat="44.82632" lon="4.69786">
        <ele>161.07</ele>
        <time>2021-03-21T09:18:57.645Z</time>
      </trkpt>
      <trkpt lat="44.82652" lon="4.69798">
        <ele>162.41</ele>
        <time>2021-03-21T09:19:16.576Z</time>
      </trkpt>
      <trkpt lat="44.82671" lon="4.69803">
        <ele>164.27</ele>
        <time>2021-03-21T09:19:34.665Z</time>
      </trkpt>
      <trkpt lat="44.8269" lon="4.69817">
        <ele>163.23</ele>
        <time>2021-03-21T09:19:53.161Z</time>
      </trkpt>
      <trkpt lat="44.82721" lon="4.69826">
        <ele>164.12</ele>
        <time>2021-03-21T09:20:21.178Z</time>
      </trkpt>
      <trkpt lat="44.8274" lon="4.69838">
        <ele>163.16</ele>
        <time>2021-03-21T09:20:39.698Z</time>
      </trkpt>
      <trkpt lat="44.82761" lon="4.69856">
        <ele>161.36</ele>
        <time>2021-03-21T09:20:58.238Z</time>
      </trkpt>
      <trkpt lat="44.8278" lon="4.69874">
        <ele>159.45</ele>
        <time>2021-03-21T09:21:18.999Z</time>
      </trkpt>
      <trkpt lat="44.82809" lon="4.69895">
        <ele>160.85</ele>
        <time>2021-03-21T09:21:47.621Z</time>
      </trkpt>
      <trkpt lat="44.82825" lon="4.69906">
        <ele>162.2</ele>
        <time>2021-03-21T09:22:06.132Z</time>
      </trkpt>
      <trkpt lat="44.82834" lon="4.69932">
        <ele>159</ele>
        <time>2021-03-21T09:22:24.999Z</time>
      </trkpt>
      <trkpt lat="44.82843" lon="4.69962">
        <ele>155.92</ele>
        <time>2021-03-21T09:22:44.050Z</time>
      </trkpt>
      <trkpt lat="44.82871" lon="4.6999">
        <ele>156.49</ele>
        <time>2021-03-21T09:23:12.656Z</time>
      </trkpt>
      <trkpt lat="44.8289" lon="4.69994">
        <ele>159.64</ele>
        <time>2021-03-21T09:23:31.999Z</time>
      </trkpt>
      <trkpt lat="44.8291" lon="4.69994">
        <ele>163.74</ele>
        <time>2021-03-21T09:23:51.760Z</time>
      </trkpt>
      <trkpt lat="44.82923" lon="4.69985">
        <ele>169.06</ele>
        <time>2021-03-21T09:24:11.999Z</time>
      </trkpt>
      <trkpt lat="44.82941" lon="4.69992">
        <ele>171.34</ele>
        <time>2021-03-21T09:24:40.999Z</time>
      </trkpt>
      <trkpt lat="44.82936" lon="4.70015">
        <ele>165.23</ele>
        <time>2021-03-21T09:25:00.999Z</time>
      </trkpt>
      <trkpt lat="44.82948" lon="4.70028">
        <ele>165.72</ele>
        <time>2021-03-21T09:25:20.999Z</time>
      </trkpt>
      <trkpt lat="44.82958" lon="4.70032">
        <ele>167.44</ele>
        <time>2021-03-21T09:25:40.999Z</time>
      </trkpt>
      <trkpt lat="44.82974" lon="4.70036">
        <ele>170.61</ele>
        <time>2021-03-21T09:26:00.999Z</time>
      </trkpt>
      <trkpt lat="44.83009" lon="4.70056">
        <ele>175.37</ele>
        <time>2021-03-21T09:26:30.921Z</time>
      </trkpt>
      <trkpt lat="44.83019" lon="4.70063">
        <ele>176.33</ele>
        <time>2021-03-21T09:26:50.999Z</time>
      </trkpt>
      <trkpt lat="44.83038" lon="4.70083">
        <ele>177.39</ele>
        <time>2021-03-21T09:27:09.478Z</time>
      </trkpt>
      <trkpt lat="44.83059" lon="4.70101">
        <ele>178.42</ele>
        <time>2021-03-21T09:27:28.276Z</time>
      </trkpt>
      <trkpt lat="44.8308" lon="4.70114">
        <ele>178.99</ele>
        <time>2021-03-21T09:27:57.382Z</time>
      </trkpt>
      <trkpt lat="44.831" lon="4.7012">
        <ele>179.52</ele>
        <time>2021-03-21T09:28:16.220Z</time>
      </trkpt>
      <trkpt lat="44.83123" lon="4.70123">
        <ele>180.53</ele>
        <time>2021-03-21T09:28:35.337Z</time>
      </trkpt>
      <trkpt lat="44.83144" lon="4.70117">
        <ele>183.8</ele>
        <time>2021-03-21T09:28:53.999Z</time>
      </trkpt>
      <trkpt lat="44.83173" lon="4.70122">
        <ele>184.41</ele>
        <time>2021-03-21T09:29:22.042Z</time>
      </trkpt>
      <trkpt lat="44.8319" lon="4.7013">
        <ele>183.19</ele>
        <time>2021-03-21T09:29:41.043Z</time>
      </trkpt>
      <trkpt lat="44.8321" lon="4.70153">
        <ele>177.93</ele>
        <time>2021-03-21T09:29:59.939Z</time>
      </trkpt>
      <trkpt lat="44.83228" lon="4.70171">
        <ele>175.38</ele>
        <time>2021-03-21T09:30:18.480Z</time>
      </trkpt>
      <trkpt lat="44.83258" lon="4.70197">
        <ele>172.81</ele>
        <time>2021-03-21T09:30:46.999Z</time>
      </trkpt>
      <trkpt lat="44.83276" lon="4.70214">
        <ele>171.66</ele>
        <time>2021-03-21T09:31:05.420Z</time>
      </trkpt>
      <trkpt lat="44.83289" lon="4.7023">
        <ele>171.13</ele>
        <time>2021-03-21T09:31:24.397Z</time>
      </trkpt>
      <trkpt lat="44.83304" lon="4.70239">
        <ele>170.99</ele>
        <time>2021-03-21T09:31:42.736Z</time>
      </trkpt>
      <trkpt lat="44.83337" lon="4.70226">
        <ele>171.21</ele>
        <time>2021-03-21T09:32:11.000Z</time>
      </trkpt>
      <trkpt lat="44.8336" lon="4.7022">
        <ele>171.92</ele>
        <time>2021-03-21T09:32:31.000Z</time>
      </trkpt>
      <trkpt lat="44.83375" lon="4.70216">
        <ele>172.43</ele>
        <time>2021-03-21T09:32:50.000Z</time>
      </trkpt>
      <trkpt lat="44.83392" lon="4.702">
        <ele>174.34</ele>
        <time>2021-03-21T09:33:10.000Z</time>
      </trkpt>
      <trkpt lat="44.83408" lon="4.70187">
        <ele>176.01</ele>
        <time>2021-03-21T09:33:30.000Z</time>
      </trkpt>
      <trkpt lat="44.83433" lon="4.70167">
        <ele>178.95</ele>
        <time>2021-03-21T09:33:59.624Z</time>
      </trkpt>
      <trkpt lat="44.83447" lon="4.70159">
        <ele>180.41</ele>
        <time>2021-03-21T09:34:18.120Z</time>
      </trkpt>
      <trkpt lat="44.83461" lon="4.70149">
        <ele>182.18</ele>
        <time>2021-03-21T09:34:37.000Z</time>
      </trkpt>
      <trkpt lat="44.8348" lon="4.70139">
        <ele>184.26</ele>
        <time>2021-03-21T09:34:57.000Z</time>
      </trkpt>
      <trkpt lat="44.83515" lon="4.70137">
        <ele>184.06</ele>
        <time>2021-03-21T09:35:26.197Z</time>
      </trkpt>
      <trkpt lat="44.83534" lon="4.70139">
        <ele>183.1</ele>
        <time>2021-03-21T09:35:45.000Z</time>
      </trkpt>
      <trkpt lat="44.83556" lon="4.70146">
        <ele>181.69</ele>
        <time>2021-03-21T09:36:03.782Z</time>
      </trkpt>
      <trkpt lat="44.83578" lon="4.70141">
        <ele>182.03</ele>
        <time>2021-03-21T09:36:23.500Z</time>
      </trkpt>
      <trkpt lat="44.83605" lon="4.70124">
        <ele>183.78</ele>
        <time>2021-03-21T09:36:52.208Z</time>
      </trkpt>
      <trkpt lat="44.83622" lon="4.70111">
        <ele>184.76</ele>
        <time>2021-03-21T09:37:10.878Z</time>
      </trkpt>
      <trkpt lat="44.83637" lon="4.70104">
        <ele>184.65</ele>
        <time>2021-03-21T09:37:30.000Z</time>
      </trkpt>
      <trkpt lat="44.83648" lon="4.70127">
        <ele>183.26</ele>
        <time>2021-03-21T09:37:48.803Z</time>
      </trkpt>
      <trkpt lat="44.83675" lon="4.70128">
        <ele>184.39</ele>
        <time>2021-03-21T09:38:17.440Z</time>
      </trkpt>
      <trkpt lat="44.8369" lon="4.70135">
        <ele>186.19</ele>
        <time>2021-03-21T09:38:37.000Z</time>
      </trkpt>
      <trkpt lat="44.83705" lon="4.70141">
        <ele>188.67</ele>
        <time>2021-03-21T09:38:56.973Z</time>
      </trkpt>
      <trkpt lat="44.83723" lon="4.70148">
        <ele>192.22</ele>
        <time>2021-03-21T09:39:15.523Z</time>
      </trkpt>
      <trkpt lat="44.83743" lon="4.70134">
        <ele>192.5</ele>
        <time>2021-03-21T09:39:43.097Z</time>
      </trkpt>
      <trkpt lat="44.83747" lon="4.70111">
        <ele>188.61</ele>
        <time>2021-03-21T09:40:02.000Z</time>
      </trkpt>
      <trkpt lat="44.83768" lon="4.70096">
        <ele>188.89</ele>
        <time>2021-03-21T09:40:20.634Z</time>
      </trkpt>
      <trkpt lat="44.83787" lon="4.70089">
        <ele>190.78</ele>
        <time>2021-03-21T09:40:39.000Z</time>
      </trkpt>
      <trkpt lat="44.83809" lon="4.70089">
        <ele>193.75</ele>
        <time>2021-03-21T09:40:57.636Z</time>
      </trkpt>
      <trkpt lat="44.8384" lon="4.70095">
        <ele>197.64</ele>
        <time>2021-03-21T09:41:27.000Z</time>
      </trkpt>
      <trkpt lat="44.83859" lon="4.70099">
        <ele>198.41</ele>
        <time>2021-03-21T09:41:46.000Z</time>
      </trkpt>
      <trkpt lat="44.83878" lon="4.7011">
        <ele>199.86</ele>
        <time>2021-03-21T09:42:04.677Z</time>
      </trkpt>
      <trkpt lat="44.83897" lon="4.70129">
        <ele>202.7</ele>
        <time>2021-03-21T09:42:22.963Z</time>
      </trkpt>
      <trkpt lat="44.83925" lon="4.7015">
        <ele>204.86</ele>
        <time>2021-03-21T09:42:51.000Z</time>
      </trkpt>
      <trkpt lat="44.83937" lon="4.70176">
        <ele>208.75</ele>
        <time>2021-03-21T09:43:09.820Z</time>
      </trkpt>
      <trkpt lat="44.83949" lon="4.702">
        <ele>212.42</ele>
        <time>2021-03-21T09:43:28.536Z</time>
      </trkpt>
      <trkpt lat="44.83965" lon="4.7022">
        <ele>212.48</ele>
        <time>2021-03-21T09:43:47.483Z</time>
      </trkpt>
      <trkpt lat="44.83991" lon="4.70251">
        <ele>210.83</ele>
        <time>2021-03-21T09:44:15.139Z</time>
      </trkpt>
      <trkpt lat="44.84008" lon="4.70269">
        <ele>211.79</ele>
        <time>2021-03-21T09:44:34.999Z</time>
      </trkpt>
      <trkpt lat="44.84027" lon="4.70284">
        <ele>213.53</ele>
        <time>2021-03-21T09:44:53.999Z</time>
      </trkpt>
      <trkpt lat="44.84048" lon="4.703">
        <ele>216.7</ele>
        <time>2021-03-21T09:45:13.442Z</time>
      </trkpt>
      <trkpt lat="44.84084" lon="4.70304">
        <ele>216.3</ele>
        <time>2021-03-21T09:45:42.999Z</time>
      </trkpt>
      <trkpt lat="44.84105" lon="4.70288">
        <ele>210.41</ele>
        <time>2021-03-21T09:46:01.717Z</time>
      </trkpt>
      <trkpt lat="44.84124" lon="4.70293">
        <ele>214.89</ele>
        <time>2021-03-21T09:46:20.123Z</time>
      </trkpt>
      <trkpt lat="44.84145" lon="4.7029">
        <ele>216.37</ele>
        <time>2021-03-21T09:46:39.999Z</time>
      </trkpt>
      <trkpt lat="44.84175" lon="4.70284">
        <ele>216.25</ele>
        <time>2021-03-21T09:47:08.999Z</time>
      </trkpt>
      <trkpt lat="44.84195" lon="4.70288">
        <ele>218.94</ele>
        <time>2021-03-21T09:47:28.416Z</time>
      </trkpt>
      <trkpt lat="44.84217" lon="4.70293">
        <ele>221.45</ele>
        <time>2021-03-21T09:47:47.999Z</time>
      </trkpt>
      <trkpt lat="44.84239" lon="4.70295">
        <ele>222.68</ele>
        <time>2021-03-21T09:48:07.081Z</time>
      </trkpt>
      <trkpt lat="44.8426" lon="4.70308">
        <ele>227.54</ele>
        <time>2021-03-21T09:48:25.717Z</time>
      </trkpt>
      <trkpt lat="44.84291" lon="4.70304">
        <ele>222.9</ele>
        <time>2021-03-21T09:48:53.999Z</time>
      </trkpt>
      <trkpt lat="44.84308" lon="4.70313">
        <ele>223.57</ele>
        <time>2021-03-21T09:49:13.999Z</time>
      </trkpt>
      <trkpt lat="44.8432" lon="4.70336">
        <ele>227.88</ele>
        <time>2021-03-21T09:49:33.999Z</time>
      </trkpt>
      <trkpt lat="44.84329" lon="4.70363">
        <ele>232.64</ele>
        <time>2021-03-21T09:49:52.999Z</time>
      </trkpt>
      <trkpt lat="44.84351" lon="4.70399">
        <ele>239.35</ele>
        <time>2021-03-21T09:50:22.999Z</time>
      </trkpt>
      <trkpt lat="44.84368" lon="4.70409">
        <ele>241.82</ele>
        <time>2021-03-21T09:50:41.999Z</time>
      </trkpt>
      <trkpt lat="44.84372" lon="4.70404">
        <ele>240.8</ele>
        <time>2021-03-21T09:51:02.999Z</time>
      </trkpt>
      <trkpt lat="44.84371" lon="4.70409">
        <ele>241.85</ele>
        <time>2021-03-21T09:51:30.999Z</time>
      </trkpt>
      <trkpt lat="44.8438" lon="4.70386">
        <ele>237.3</ele>
        <time>2021-03-21T09:52:16.999Z</time>
      </trkpt>
      <trkpt lat="44.84397" lon="4.7037">
        <ele>235.49</ele>
        <time>2021-03-21T09:52:36.999Z</time>
      </trkpt>
      <trkpt lat="44.84421" lon="4.70374">
        <ele>240.69</ele>
        <time>2021-03-21T09:52:55.999Z</time>
      </trkpt>
      <trkpt lat="44.84443" lon="4.70377">
        <ele>247.55</ele>
        <time>2021-03-21T09:53:15.999Z</time>
      </trkpt>
      <trkpt lat="44.84465" lon="4.70354">
        <ele>249.13</ele>
        <time>2021-03-21T09:53:44.880Z</time>
      </trkpt>
      <trkpt lat="44.84481" lon="4.70328">
        <ele>247.11</ele>
        <time>2021-03-21T09:54:03.999Z</time>
      </trkpt>
      <trkpt lat="44.84502" lon="4.70317">
        <ele>250.38</ele>
        <time>2021-03-21T09:54:23.457Z</time>
      </trkpt>
      <trkpt lat="44.84518" lon="4.70302">
        <ele>251.16</ele>
        <time>2021-03-21T09:54:41.797Z</time>
      </trkpt>
      <trkpt lat="44.84539" lon="4.70271">
        <ele>250.69</ele>
        <time>2021-03-21T09:55:10.000Z</time>
      </trkpt>
      <trkpt lat="44.8455" lon="4.70253">
        <ele>250.1</ele>
        <time>2021-03-21T09:55:28.140Z</time>
      </trkpt>
      <trkpt lat="44.84564" lon="4.70229">
        <ele>249.14</ele>
        <time>2021-03-21T09:55:46.820Z</time>
      </trkpt>
      <trkpt lat="44.84576" lon="4.70206">
        <ele>246.26</ele>
        <time>2021-03-21T09:56:05.278Z</time>
      </trkpt>
      <trkpt lat="44.84588" lon="4.70182">
        <ele>241.96</ele>
        <time>2021-03-21T09:56:25.000Z</time>
      </trkpt>
      <trkpt lat="44.84612" lon="4.70146">
        <ele>238.38</ele>
        <time>2021-03-21T09:56:53.033Z</time>
      </trkpt>
      <trkpt lat="44.84625" lon="4.70119">
        <ele>235.63</ele>
        <time>2021-03-21T09:57:11.862Z</time>
      </trkpt>
      <trkpt lat="44.8463" lon="4.7009">
        <ele>233.08</ele>
        <time>2021-03-21T09:57:31.000Z</time>
      </trkpt>
      <trkpt lat="44.84622" lon="4.70062">
        <ele>232.38</ele>
        <time>2021-03-21T09:57:49.482Z</time>
      </trkpt>
      <trkpt lat="44.84631" lon="4.70054">
        <ele>233.75</ele>
        <time>2021-03-21T09:58:17.189Z</time>
      </trkpt>
      <trkpt lat="44.84638" lon="4.70043">
        <ele>235.39</ele>
        <time>2021-03-21T09:58:37.000Z</time>
      </trkpt>
      <trkpt lat="44.84639" lon="4.70004">
        <ele>239.6</ele>
        <time>2021-03-21T09:58:56.820Z</time>
      </trkpt>
      <trkpt lat="44.8465" lon="4.70007">
        <ele>239.39</ele>
        <time>2021-03-21T09:59:16.000Z</time>
      </trkpt>
      <trkpt lat="44.84661" lon="4.69996">
        <ele>241.28</ele>
        <time>2021-03-21T09:59:46.000Z</time>
      </trkpt>
      <trkpt lat="44.84671" lon="4.70008">
        <ele>242.55</ele>
        <time>2021-03-21T10:00:04.882Z</time>
      </trkpt>
      <trkpt lat="44.84674" lon="4.70015">
        <ele>243.16</ele>
        <time>2021-03-21T10:00:25.000Z</time>
      </trkpt>
      <trkpt lat="44.84682" lon="4.70012">
        <ele>246.36</ele>
        <time>2021-03-21T10:00:44.000Z</time>
      </trkpt>
      <trkpt lat="44.84691" lon="4.70006">
        <ele>250.69</ele>
        <time>2021-03-21T10:01:14.000Z</time>
      </trkpt>
      <trkpt lat="44.84699" lon="4.7001">
        <ele>254.65</ele>
        <time>2021-03-21T10:01:33.442Z</time>
      </trkpt>
      <trkpt lat="44.84707" lon="4.70012">
        <ele>259.09</ele>
        <time>2021-03-21T10:01:53.940Z</time>
      </trkpt>
      <trkpt lat="44.84716" lon="4.70001">
        <ele>264.06</ele>
        <time>2021-03-21T10:02:12.759Z</time>
      </trkpt>
      <trkpt lat="44.84723" lon="4.69982">
        <ele>267.38</ele>
        <time>2021-03-21T10:02:40.776Z</time>
      </trkpt>
      <trkpt lat="44.84729" lon="4.69979">
        <ele>270.34</ele>
        <time>2021-03-21T10:03:00.742Z</time>
      </trkpt>
      <trkpt lat="44.84742" lon="4.69974">
        <ele>276.48</ele>
        <time>2021-03-21T10:03:19.660Z</time>
      </trkpt>
      <trkpt lat="44.84746" lon="4.69963">
        <ele>276.82</ele>
        <time>2021-03-21T10:03:38.000Z</time>
      </trkpt>
      <trkpt lat="44.84763" lon="4.6996">
        <ele>284.34</ele>
        <time>2021-03-21T10:03:58.000Z</time>
      </trkpt>
      <trkpt lat="44.84783" lon="4.6995">
        <ele>293.37</ele>
        <time>2021-03-21T10:04:26.981Z</time>
      </trkpt>
      <trkpt lat="44.8479" lon="4.69945">
        <ele>297.14</ele>
        <time>2021-03-21T10:04:46.000Z</time>
      </trkpt>
      <trkpt lat="44.84803" lon="4.6994">
        <ele>304.12</ele>
        <time>2021-03-21T10:05:07.000Z</time>
      </trkpt>
      <trkpt lat="44.84812" lon="4.69936">
        <ele>308.84</ele>
        <time>2021-03-21T10:05:26.216Z</time>
      </trkpt>
      <trkpt lat="44.84818" lon="4.69925">
        <ele>310.5</ele>
        <time>2021-03-21T10:05:55.423Z</time>
      </trkpt>
      <trkpt lat="44.84823" lon="4.69938">
        <ele>315.68</ele>
        <time>2021-03-21T10:06:14.000Z</time>
      </trkpt>
      <trkpt lat="44.84827" lon="4.69928">
        <ele>316.32</ele>
        <time>2021-03-21T10:06:32.799Z</time>
      </trkpt>
      <trkpt lat="44.8483" lon="4.69925">
        <ele>317.74</ele>
        <time>2021-03-21T10:06:51.999Z</time>
      </trkpt>
      <trkpt lat="44.84835" lon="4.69921">
        <ele>319.45</ele>
        <time>2021-03-21T10:07:22.999Z</time>
      </trkpt>
      <trkpt lat="44.84835" lon="4.69917">
        <ele>318.8</ele>
        <time>2021-03-21T10:08:36.874Z</time>
      </trkpt>
      <trkpt lat="44.84841" lon="4.69915">
        <ele>321.44</ele>
        <time>2021-03-21T10:08:55.999Z</time>
      </trkpt>
      <trkpt lat="44.8485" lon="4.69913">
        <ele>325.65</ele>
        <time>2021-03-21T10:09:15.999Z</time>
      </trkpt>
      <trkpt lat="44.84859" lon="4.69911">
        <ele>329.63</ele>
        <time>2021-03-21T10:09:45.999Z</time>
      </trkpt>
      <trkpt lat="44.84863" lon="4.69921">
        <ele>334</ele>
        <time>2021-03-21T10:10:04.999Z</time>
      </trkpt>
      <trkpt lat="44.8487" lon="4.69921">
        <ele>337.17</ele>
        <time>2021-03-21T10:10:23.562Z</time>
      </trkpt>
      <trkpt lat="44.8488" lon="4.69921">
        <ele>341.89</ele>
        <time>2021-03-21T10:10:42.999Z</time>
      </trkpt>
      <trkpt lat="44.84886" lon="4.69934">
        <ele>347.47</ele>
        <time>2021-03-21T10:11:11.999Z</time>
      </trkpt>
      <trkpt lat="44.84887" lon="4.69949">
        <ele>351.32</ele>
        <time>2021-03-21T10:11:30.897Z</time>
      </trkpt>
      <trkpt lat="44.84896" lon="4.69948">
        <ele>355.52</ele>
        <time>2021-03-21T10:11:50.864Z</time>
      </trkpt>
      <trkpt lat="44.84912" lon="4.69947">
        <ele>362.53</ele>
        <time>2021-03-21T10:12:10.880Z</time>
      </trkpt>
      <trkpt lat="44.84927" lon="4.69944">
        <ele>368.84</ele>
        <time>2021-03-21T10:12:29.999Z</time>
      </trkpt>
      <trkpt lat="44.8492" lon="4.69966">
        <ele>370.55</ele>
        <time>2021-03-21T10:12:58.999Z</time>
      </trkpt>
      <trkpt lat="44.84918" lon="4.69979">
        <ele>371.6</ele>
        <time>2021-03-21T10:13:17.635Z</time>
      </trkpt>
      <trkpt lat="44.84918" lon="4.69978">
        <ele>371.4</ele>
        <time>2021-03-21T10:14:40.999Z</time>
      </trkpt>
      <trkpt lat="44.84917" lon="4.69974">
        <ele>370.43</ele>
        <time>2021-03-21T10:17:30.999Z</time>
      </trkpt>
      <trkpt lat="44.8492" lon="4.69967">
        <ele>370.49</ele>
        <time>2021-03-21T10:18:22.000Z</time>
      </trkpt>
      <trkpt lat="44.84922" lon="4.69963">
        <ele>370.79</ele>
        <time>2021-03-21T10:19:53.000Z</time>
      </trkpt>
      <trkpt lat="44.84929" lon="4.69962">
        <ele>374.01</ele>
        <time>2021-03-21T10:20:26.619Z</time>
      </trkpt>
      <trkpt lat="44.84943" lon="4.69958">
        <ele>379.37</ele>
        <time>2021-03-21T10:20:46.000Z</time>
      </trkpt>
      <trkpt lat="44.84961" lon="4.69952">
        <ele>385.43</ele>
        <time>2021-03-21T10:21:15.000Z</time>
      </trkpt>
      <trkpt lat="44.84974" lon="4.69945">
        <ele>388.83</ele>
        <time>2021-03-21T10:21:35.000Z</time>
      </trkpt>
      <trkpt lat="44.84985" lon="4.69943">
        <ele>392.87</ele>
        <time>2021-03-21T10:21:53.857Z</time>
      </trkpt>
      <trkpt lat="44.84994" lon="4.6994">
        <ele>396.01</ele>
        <time>2021-03-21T10:22:13.000Z</time>
      </trkpt>
      <trkpt lat="44.85013" lon="4.69933">
        <ele>402.85</ele>
        <time>2021-03-21T10:22:42.341Z</time>
      </trkpt>
      <trkpt lat="44.85025" lon="4.69926">
        <ele>406.71</ele>
        <time>2021-03-21T10:23:02.000Z</time>
      </trkpt>
      <trkpt lat="44.85039" lon="4.6992">
        <ele>412.11</ele>
        <time>2021-03-21T10:23:22.022Z</time>
      </trkpt>
      <trkpt lat="44.85049" lon="4.69913">
        <ele>416.48</ele>
        <time>2021-03-21T10:23:42.000Z</time>
      </trkpt>
      <trkpt lat="44.85065" lon="4.69902">
        <ele>423.25</ele>
        <time>2021-03-21T10:24:10.819Z</time>
      </trkpt>
      <trkpt lat="44.85074" lon="4.69893">
        <ele>426.73</ele>
        <time>2021-03-21T10:24:30.000Z</time>
      </trkpt>
      <trkpt lat="44.85081" lon="4.69872">
        <ele>427.2</ele>
        <time>2021-03-21T10:24:50.000Z</time>
      </trkpt>
      <trkpt lat="44.85086" lon="4.69851">
        <ele>426.91</ele>
        <time>2021-03-21T10:25:10.000Z</time>
      </trkpt>
      <trkpt lat="44.85093" lon="4.6983">
        <ele>426.88</ele>
        <time>2021-03-21T10:25:31.000Z</time>
      </trkpt>
      <trkpt lat="44.85106" lon="4.69811">
        <ele>429.59</ele>
        <time>2021-03-21T10:26:01.000Z</time>
      </trkpt>
      <trkpt lat="44.8512" lon="4.69802">
        <ele>433.49</ele>
        <time>2021-03-21T10:26:21.000Z</time>
      </trkpt>
      <trkpt lat="44.85132" lon="4.69799">
        <ele>437.78</ele>
        <time>2021-03-21T10:26:40.000Z</time>
      </trkpt>
      <trkpt lat="44.85147" lon="4.69795">
        <ele>443.41</ele>
        <time>2021-03-21T10:26:58.880Z</time>
      </trkpt>
      <trkpt lat="44.85154" lon="4.69798">
        <ele>446.96</ele>
        <time>2021-03-21T10:28:27.000Z</time>
      </trkpt>
      <trkpt lat="44.85151" lon="4.69802">
        <ele>446.3</ele>
        <time>2021-03-21T10:31:38.999Z</time>
      </trkpt>
      <trkpt lat="44.85145" lon="4.69817">
        <ele>447.19</ele>
        <time>2021-03-21T10:31:57.935Z</time>
      </trkpt>
      <trkpt lat="44.85136" lon="4.69842">
        <ele>447.83</ele>
        <time>2021-03-21T10:32:17.999Z</time>
      </trkpt>
      <trkpt lat="44.85124" lon="4.69872">
        <ele>447.87</ele>
        <time>2021-03-21T10:32:46.603Z</time>
      </trkpt>
      <trkpt lat="44.85119" lon="4.69901">
        <ele>450.11</ele>
        <time>2021-03-21T10:33:06.079Z</time>
      </trkpt>
      <trkpt lat="44.85117" lon="4.69924">
        <ele>451.31</ele>
        <time>2021-03-21T10:33:24.999Z</time>
      </trkpt>
      <trkpt lat="44.85107" lon="4.6995">
        <ele>449.57</ele>
        <time>2021-03-21T10:33:43.674Z</time>
      </trkpt>
      <trkpt lat="44.85111" lon="4.6996">
        <ele>452.23</ele>
        <time>2021-03-21T10:34:13.581Z</time>
      </trkpt>
      <trkpt lat="44.85121" lon="4.69935">
        <ele>454.84</ele>
        <time>2021-03-21T10:34:31.999Z</time>
      </trkpt>
      <trkpt lat="44.85133" lon="4.69908">
        <ele>457.41</ele>
        <time>2021-03-21T10:34:51.597Z</time>
      </trkpt>
      <trkpt lat="44.85146" lon="4.69889">
        <ele>461.05</ele>
        <time>2021-03-21T10:35:10.999Z</time>
      </trkpt>
      <trkpt lat="44.8517" lon="4.69859">
        <ele>465.32</ele>
        <time>2021-03-21T10:35:39.765Z</time>
      </trkpt>
      <trkpt lat="44.85186" lon="4.69844">
        <ele>468.89</ele>
        <time>2021-03-21T10:35:58.881Z</time>
      </trkpt>
      <trkpt lat="44.85203" lon="4.69833">
        <ele>473.62</ele>
        <time>2021-03-21T10:36:17.999Z</time>
      </trkpt>
      <trkpt lat="44.85223" lon="4.69822">
        <ele>479.64</ele>
        <time>2021-03-21T10:36:36.999Z</time>
      </trkpt>
      <trkpt lat="44.8524" lon="4.69804">
        <ele>484.51</ele>
        <time>2021-03-21T10:36:55.877Z</time>
      </trkpt>
      <trkpt lat="44.85245" lon="4.69763">
        <ele>483.33</ele>
        <time>2021-03-21T10:37:25.596Z</time>
      </trkpt>
      <trkpt lat="44.85241" lon="4.69731">
        <ele>479.89</ele>
        <time>2021-03-21T10:37:44.139Z</time>
      </trkpt>
      <trkpt lat="44.85238" lon="4.69704">
        <ele>478.01</ele>
        <time>2021-03-21T10:38:02.999Z</time>
      </trkpt>
      <trkpt lat="44.85236" lon="4.69676">
        <ele>476.89</ele>
        <time>2021-03-21T10:38:22.439Z</time>
      </trkpt>
      <trkpt lat="44.85245" lon="4.69632">
        <ele>479.12</ele>
        <time>2021-03-21T10:38:50.534Z</time>
      </trkpt>
      <trkpt lat="44.85251" lon="4.69606">
        <ele>480.02</ele>
        <time>2021-03-21T10:39:09.025Z</time>
      </trkpt>
      <trkpt lat="44.85258" lon="4.69581">
        <ele>480.96</ele>
        <time>2021-03-21T10:39:27.602Z</time>
      </trkpt>
      <trkpt lat="44.85269" lon="4.69556">
        <ele>481.72</ele>
        <time>2021-03-21T10:39:45.717Z</time>
      </trkpt>
      <trkpt lat="44.85287" lon="4.69522">
        <ele>481.93</ele>
        <time>2021-03-21T10:40:13.000Z</time>
      </trkpt>
      <trkpt lat="44.85306" lon="4.69509">
        <ele>484.35</ele>
        <time>2021-03-21T10:40:31.664Z</time>
      </trkpt>
      <trkpt lat="44.85322" lon="4.69497">
        <ele>484.69</ele>
        <time>2021-03-21T10:40:50.002Z</time>
      </trkpt>
      <trkpt lat="44.85341" lon="4.69491">
        <ele>485.48</ele>
        <time>2021-03-21T10:41:08.579Z</time>
      </trkpt>
      <trkpt lat="44.85373" lon="4.6949">
        <ele>486.28</ele>
        <time>2021-03-21T10:41:36.256Z</time>
      </trkpt>
      <trkpt lat="44.85395" lon="4.69492">
        <ele>486.48</ele>
        <time>2021-03-21T10:41:55.556Z</time>
      </trkpt>
      <trkpt lat="44.8541" lon="4.69503">
        <ele>489.84</ele>
        <time>2021-03-21T10:42:14.140Z</time>
      </trkpt>
      <trkpt lat="44.85427" lon="4.69514">
        <ele>493.76</ele>
        <time>2021-03-21T10:42:33.000Z</time>
      </trkpt>
      <trkpt lat="44.85452" lon="4.69528">
        <ele>497.79</ele>
        <time>2021-03-21T10:43:01.516Z</time>
      </trkpt>
      <trkpt lat="44.85469" lon="4.69534">
        <ele>499.36</ele>
        <time>2021-03-21T10:43:20.000Z</time>
      </trkpt>
      <trkpt lat="44.85485" lon="4.69543">
        <ele>502.52</ele>
        <time>2021-03-21T10:43:38.785Z</time>
      </trkpt>
      <trkpt lat="44.85501" lon="4.69547">
        <ele>504.39</ele>
        <time>2021-03-21T10:43:57.000Z</time>
      </trkpt>
      <trkpt lat="44.85519" lon="4.69552">
        <ele>508.13</ele>
        <time>2021-03-21T10:44:15.537Z</time>
      </trkpt>
      <trkpt lat="44.85498" lon="4.69577">
        <ele>514.71</ele>
        <time>2021-03-21T10:44:44.000Z</time>
      </trkpt>
      <trkpt lat="44.85481" lon="4.6958">
        <ele>515.14</ele>
        <time>2021-03-21T10:45:04.000Z</time>
      </trkpt>
      <trkpt lat="44.85464" lon="4.69584">
        <ele>516.61</ele>
        <time>2021-03-21T10:45:22.761Z</time>
      </trkpt>
      <trkpt lat="44.85447" lon="4.69585">
        <ele>517.21</ele>
        <time>2021-03-21T10:45:41.159Z</time>
      </trkpt>
      <trkpt lat="44.85419" lon="4.69593">
        <ele>518.88</ele>
        <time>2021-03-21T10:46:11.000Z</time>
      </trkpt>
      <trkpt lat="44.85399" lon="4.69603">
        <ele>519.88</ele>
        <time>2021-03-21T10:46:30.064Z</time>
      </trkpt>
      <trkpt lat="44.85381" lon="4.69614">
        <ele>520.1</ele>
        <time>2021-03-21T10:46:49.000Z</time>
      </trkpt>
      <trkpt lat="44.85364" lon="4.69633">
        <ele>521.15</ele>
        <time>2021-03-21T10:47:09.000Z</time>
      </trkpt>
      <trkpt lat="44.85349" lon="4.69668">
        <ele>523.11</ele>
        <time>2021-03-21T10:47:38.000Z</time>
      </trkpt>
      <trkpt lat="44.85341" lon="4.69694">
        <ele>523.68</ele>
        <time>2021-03-21T10:47:57.143Z</time>
      </trkpt>
      <trkpt lat="44.85343" lon="4.69714">
        <ele>526.26</ele>
        <time>2021-03-21T10:48:17.000Z</time>
      </trkpt>
      <trkpt lat="44.85345" lon="4.69745">
        <ele>528.91</ele>
        <time>2021-03-21T10:48:35.843Z</time>
      </trkpt>
      <trkpt lat="44.85344" lon="4.69787">
        <ele>530.28</ele>
        <time>2021-03-21T10:49:04.160Z</time>
      </trkpt>
      <trkpt lat="44.85348" lon="4.69817">
        <ele>531.87</ele>
        <time>2021-03-21T10:49:22.898Z</time>
      </trkpt>
      <trkpt lat="44.85357" lon="4.69838">
        <ele>534.11</ele>
        <time>2021-03-21T10:49:43.000Z</time>
      </trkpt>
      <trkpt lat="44.85363" lon="4.69852">
        <ele>535.11</ele>
        <time>2021-03-21T10:50:01.855Z</time>
      </trkpt>
      <trkpt lat="44.85366" lon="4.69878">
        <ele>533.86</ele>
        <time>2021-03-21T10:50:33.681Z</time>
      </trkpt>
      <trkpt lat="44.85373" lon="4.6989">
        <ele>533.7</ele>
        <time>2021-03-21T10:50:55.000Z</time>
      </trkpt>
      <trkpt lat="44.85393" lon="4.69907">
        <ele>533.45</ele>
        <time>2021-03-21T10:51:13.557Z</time>
      </trkpt>
      <trkpt lat="44.85413" lon="4.69902">
        <ele>536.66</ele>
        <time>2021-03-21T10:51:32.018Z</time>
      </trkpt>
      <trkpt lat="44.85426" lon="4.69899">
        <ele>538.83</ele>
        <time>2021-03-21T10:51:50.383Z</time>
      </trkpt>
      <trkpt lat="44.85469" lon="4.69892">
        <ele>545.24</ele>
        <time>2021-03-21T10:52:19.344Z</time>
      </trkpt>
      <trkpt lat="44.85489" lon="4.69894">
        <ele>547.02</ele>
        <time>2021-03-21T10:52:37.999Z</time>
      </trkpt>
      <trkpt lat="44.85512" lon="4.69898">
        <ele>549.15</ele>
        <time>2021-03-21T10:52:57.037Z</time>
      </trkpt>
      <trkpt lat="44.85532" lon="4.69914">
        <ele>549.34</ele>
        <time>2021-03-21T10:53:16.117Z</time>
      </trkpt>
      <trkpt lat="44.85556" lon="4.69939">
        <ele>548.99</ele>
        <time>2021-03-21T10:53:44.714Z</time>
      </trkpt>
      <trkpt lat="44.85567" lon="4.6994">
        <ele>550.32</ele>
        <time>2021-03-21T10:54:04.642Z</time>
      </trkpt>
      <trkpt lat="44.8559" lon="4.69928">
        <ele>553.82</ele>
        <time>2021-03-21T10:54:23.338Z</time>
      </trkpt>
      <trkpt lat="44.85608" lon="4.69907">
        <ele>556.78</ele>
        <time>2021-03-21T10:54:41.999Z</time>
      </trkpt>
      <trkpt lat="44.8563" lon="4.69871">
        <ele>561.1</ele>
        <time>2021-03-21T10:55:11.999Z</time>
      </trkpt>
      <trkpt lat="44.85642" lon="4.6985">
        <ele>563.2</ele>
        <time>2021-03-21T10:55:31.522Z</time>
      </trkpt>
      <trkpt lat="44.85654" lon="4.6982">
        <ele>565.6</ele>
        <time>2021-03-21T10:55:49.999Z</time>
      </trkpt>
      <trkpt lat="44.85666" lon="4.69798">
        <ele>566.87</ele>
        <time>2021-03-21T10:56:08.999Z</time>
      </trkpt>
      <trkpt lat="44.85667" lon="4.69762">
        <ele>569.62</ele>
        <time>2021-03-21T10:56:36.999Z</time>
      </trkpt>
      <trkpt lat="44.85675" lon="4.69728">
        <ele>569.39</ele>
        <time>2021-03-21T10:56:55.395Z</time>
      </trkpt>
      <trkpt lat="44.85684" lon="4.69697">
        <ele>567.91</ele>
        <time>2021-03-21T10:57:13.963Z</time>
      </trkpt>
      <trkpt lat="44.857" lon="4.69685">
        <ele>567.79</ele>
        <time>2021-03-21T10:57:32.081Z</time>
      </trkpt>
      <trkpt lat="44.85722" lon="4.69648">
        <ele>568.27</ele>
        <time>2021-03-21T10:58:00.461Z</time>
      </trkpt>
      <trkpt lat="44.85739" lon="4.69624">
        <ele>569.67</ele>
        <time>2021-03-21T10:58:18.960Z</time>
      </trkpt>
      <trkpt lat="44.85756" lon="4.69602">
        <ele>571.66</ele>
        <time>2021-03-21T10:58:37.477Z</time>
      </trkpt>
      <trkpt lat="44.8577" lon="4.69597">
        <ele>572.98</ele>
        <time>2021-03-21T10:58:55.999Z</time>
      </trkpt>
      <trkpt lat="44.85766" lon="4.696">
        <ele>572.54</ele>
        <time>2021-03-21T10:59:15.999Z</time>
      </trkpt>
      <trkpt lat="44.85773" lon="4.69593">
        <ele>573.47</ele>
        <time>2021-03-21T11:00:33.999Z</time>
      </trkpt>
      <trkpt lat="44.85795" lon="4.69591">
        <ele>574.88</ele>
        <time>2021-03-21T11:00:53.999Z</time>
      </trkpt>
      <trkpt lat="44.85803" lon="4.69583">
        <ele>576.33</ele>
        <time>2021-03-21T11:01:13.104Z</time>
      </trkpt>
      <trkpt lat="44.85819" lon="4.69569">
        <ele>579.31</ele>
        <time>2021-03-21T11:01:31.999Z</time>
      </trkpt>
      <trkpt lat="44.85835" lon="4.69558">
        <ele>582.26</ele>
        <time>2021-03-21T11:02:00.999Z</time>
      </trkpt>
      <trkpt lat="44.8585" lon="4.69535">
        <ele>587.74</ele>
        <time>2021-03-21T11:02:19.999Z</time>
      </trkpt>
      <trkpt lat="44.85856" lon="4.69514">
        <ele>591.75</ele>
        <time>2021-03-21T11:02:38.856Z</time>
      </trkpt>
      <trkpt lat="44.85859" lon="4.69489">
        <ele>595.02</ele>
        <time>2021-03-21T11:02:57.883Z</time>
      </trkpt>
      <trkpt lat="44.85875" lon="4.69482">
        <ele>597.8</ele>
        <time>2021-03-21T11:03:27.000Z</time>
      </trkpt>
      <trkpt lat="44.85887" lon="4.69469">
        <ele>600.88</ele>
        <time>2021-03-21T11:03:46.000Z</time>
      </trkpt>
      <trkpt lat="44.85884" lon="4.69449">
        <ele>602.22</ele>
        <time>2021-03-21T11:04:05.173Z</time>
      </trkpt>
      <trkpt lat="44.8589" lon="4.69421">
        <ele>604.87</ele>
        <time>2021-03-21T11:04:24.000Z</time>
      </trkpt>
      <trkpt lat="44.85905" lon="4.69386">
        <ele>608.9</ele>
        <time>2021-03-21T11:04:52.000Z</time>
      </trkpt>
      <trkpt lat="44.85922" lon="4.69371">
        <ele>613.21</ele>
        <time>2021-03-21T11:05:11.520Z</time>
      </trkpt>
      <trkpt lat="44.85931" lon="4.69347">
        <ele>615.17</ele>
        <time>2021-03-21T11:05:31.000Z</time>
      </trkpt>
      <trkpt lat="44.85941" lon="4.69324">
        <ele>617.97</ele>
        <time>2021-03-21T11:05:51.000Z</time>
      </trkpt>
      <trkpt lat="44.85957" lon="4.69294">
        <ele>622.01</ele>
        <time>2021-03-21T11:06:20.000Z</time>
      </trkpt>
      <trkpt lat="44.85966" lon="4.69272">
        <ele>624.64</ele>
        <time>2021-03-21T11:06:39.000Z</time>
      </trkpt>
      <trkpt lat="44.85976" lon="4.6925">
        <ele>627.48</ele>
        <time>2021-03-21T11:06:58.457Z</time>
      </trkpt>
      <trkpt lat="44.85983" lon="4.6923">
        <ele>629.48</ele>
        <time>2021-03-21T11:07:18.000Z</time>
      </trkpt>
      <trkpt lat="44.85992" lon="4.69212">
        <ele>632</ele>
        <time>2021-03-21T11:07:37.074Z</time>
      </trkpt>
      <trkpt lat="44.86" lon="4.69175">
        <ele>633.94</ele>
        <time>2021-03-21T11:08:07.000Z</time>
      </trkpt>
      <trkpt lat="44.86004" lon="4.69149">
        <ele>636.17</ele>
        <time>2021-03-21T11:08:26.000Z</time>
      </trkpt>
      <trkpt lat="44.8601" lon="4.69126">
        <ele>639.64</ele>
        <time>2021-03-21T11:08:46.000Z</time>
      </trkpt>
      <trkpt lat="44.86013" lon="4.691">
        <ele>642.81</ele>
        <time>2021-03-21T11:09:04.785Z</time>
      </trkpt>
      <trkpt lat="44.86015" lon="4.69063">
        <ele>646.63</ele>
        <time>2021-03-21T11:09:34.000Z</time>
      </trkpt>
      <trkpt lat="44.86019" lon="4.69041">
        <ele>650.46</ele>
        <time>2021-03-21T11:09:53.319Z</time>
      </trkpt>
      <trkpt lat="44.86028" lon="4.6902">
        <ele>657.03</ele>
        <time>2021-03-21T11:10:13.899Z</time>
      </trkpt>
      <trkpt lat="44.86027" lon="4.68998">
        <ele>659.57</ele>
        <time>2021-03-21T11:10:34.000Z</time>
      </trkpt>
      <trkpt lat="44.86026" lon="4.68971">
        <ele>663.16</ele>
        <time>2021-03-21T11:11:04.000Z</time>
      </trkpt>
      <trkpt lat="44.86016" lon="4.68945">
        <ele>663.32</ele>
        <time>2021-03-21T11:11:23.000Z</time>
      </trkpt>
      <trkpt lat="44.86013" lon="4.68924">
        <ele>665.78</ele>
        <time>2021-03-21T11:11:41.916Z</time>
      </trkpt>
      <trkpt lat="44.86018" lon="4.68907">
        <ele>669.99</ele>
        <time>2021-03-21T11:12:00.784Z</time>
      </trkpt>
      <trkpt lat="44.8601" lon="4.68879">
        <ele>671.21</ele>
        <time>2021-03-21T11:12:29.825Z</time>
      </trkpt>
      <trkpt lat="44.86005" lon="4.68857">
        <ele>672.37</ele>
        <time>2021-03-21T11:12:48.481Z</time>
      </trkpt>
      <trkpt lat="44.86003" lon="4.68837">
        <ele>673.72</ele>
        <time>2021-03-21T11:13:07.000Z</time>
      </trkpt>
      <trkpt lat="44.85999" lon="4.68808">
        <ele>673.67</ele>
        <time>2021-03-21T11:13:27.000Z</time>
      </trkpt>
      <trkpt lat="44.86004" lon="4.68771">
        <ele>673.7</ele>
        <time>2021-03-21T11:13:56.000Z</time>
      </trkpt>
      <trkpt lat="44.86007" lon="4.68774">
        <ele>674.42</ele>
        <time>2021-03-21T11:14:29.999Z</time>
      </trkpt>
      <trkpt lat="44.86007" lon="4.68775">
        <ele>674.49</ele>
        <time>2021-03-21T11:16:43.999Z</time>
      </trkpt>
      <trkpt lat="44.8601" lon="4.68769">
        <ele>674.61</ele>
        <time>2021-03-21T11:17:33.581Z</time>
      </trkpt>
      <trkpt lat="44.86025" lon="4.6876">
        <ele>675.25</ele>
        <time>2021-03-21T11:17:53.098Z</time>
      </trkpt>
      <trkpt lat="44.86063" lon="4.68756">
        <ele>675.66</ele>
        <time>2021-03-21T11:18:21.622Z</time>
      </trkpt>
      <trkpt lat="44.86087" lon="4.68765">
        <ele>677.83</ele>
        <time>2021-03-21T11:18:40.484Z</time>
      </trkpt>
      <trkpt lat="44.86106" lon="4.6878">
        <ele>680.8</ele>
        <time>2021-03-21T11:18:59.482Z</time>
      </trkpt>
      <trkpt lat="44.86114" lon="4.68784">
        <ele>681.5</ele>
        <time>2021-03-21T11:19:18.000Z</time>
      </trkpt>
      <trkpt lat="44.86135" lon="4.68789">
        <ele>681.57</ele>
        <time>2021-03-21T11:19:45.457Z</time>
      </trkpt>
      <trkpt lat="44.86145" lon="4.68786">
        <ele>680.07</ele>
        <time>2021-03-21T11:20:04.127Z</time>
      </trkpt>
      <trkpt lat="44.86162" lon="4.68776">
        <ele>676.34</ele>
        <time>2021-03-21T11:20:23.240Z</time>
      </trkpt>
      <trkpt lat="44.86205" lon="4.68768">
        <ele>675.86</ele>
        <time>2021-03-21T11:20:42.239Z</time>
      </trkpt>
      <trkpt lat="44.86248" lon="4.68757">
        <ele>676.33</ele>
        <time>2021-03-21T11:21:11.020Z</time>
      </trkpt>
      <trkpt lat="44.86269" lon="4.68754">
        <ele>676.07</ele>
        <time>2021-03-21T11:21:29.356Z</time>
      </trkpt>
      <trkpt lat="44.86288" lon="4.68756">
        <ele>677.07</ele>
        <time>2021-03-21T11:21:47.943Z</time>
      </trkpt>
      <trkpt lat="44.8631" lon="4.68751">
        <ele>676.41</ele>
        <time>2021-03-21T11:22:06.359Z</time>
      </trkpt>
      <trkpt lat="44.86347" lon="4.68752">
        <ele>682.38</ele>
        <time>2021-03-21T11:22:33.860Z</time>
      </trkpt>
      <trkpt lat="44.86353" lon="4.68741">
        <ele>681.98</ele>
        <time>2021-03-21T11:22:52.156Z</time>
      </trkpt>
      <trkpt lat="44.86358" lon="4.68712">
        <ele>679.63</ele>
        <time>2021-03-21T11:23:10.722Z</time>
      </trkpt>
      <trkpt lat="44.86362" lon="4.68701">
        <ele>680.5</ele>
        <time>2021-03-21T11:23:48.820Z</time>
      </trkpt>
      <trkpt lat="44.86364" lon="4.68701">
        <ele>681.18</ele>
        <time>2021-03-21T12:15:15.000Z</time>
      </trkpt>
      <trkpt lat="44.86365" lon="4.68682">
        <ele>680.01</ele>
        <time>2021-03-21T12:15:47.999Z</time>
      </trkpt>
      <trkpt lat="44.86367" lon="4.68661">
        <ele>679.24</ele>
        <time>2021-03-21T12:16:06.863Z</time>
      </trkpt>
      <trkpt lat="44.86371" lon="4.68639">
        <ele>680.63</ele>
        <time>2021-03-21T12:16:25.983Z</time>
      </trkpt>
      <trkpt lat="44.86373" lon="4.68615">
        <ele>680.39</ele>
        <time>2021-03-21T12:16:44.999Z</time>
      </trkpt>
      <trkpt lat="44.86379" lon="4.68586">
        <ele>681.67</ele>
        <time>2021-03-21T12:17:13.899Z</time>
      </trkpt>
      <trkpt lat="44.86379" lon="4.6855">
        <ele>677.52</ele>
        <time>2021-03-21T12:17:32.535Z</time>
      </trkpt>
      <trkpt lat="44.8638" lon="4.68528">
        <ele>674.37</ele>
        <time>2021-03-21T12:17:51.263Z</time>
      </trkpt>
      <trkpt lat="44.86379" lon="4.68497">
        <ele>670.02</ele>
        <time>2021-03-21T12:18:09.485Z</time>
      </trkpt>
      <trkpt lat="44.86387" lon="4.68452">
        <ele>668.26</ele>
        <time>2021-03-21T12:18:38.103Z</time>
      </trkpt>
      <trkpt lat="44.86403" lon="4.68426">
        <ele>670.58</ele>
        <time>2021-03-21T12:18:56.880Z</time>
      </trkpt>
      <trkpt lat="44.86414" lon="4.68401">
        <ele>671.03</ele>
        <time>2021-03-21T12:19:16.575Z</time>
      </trkpt>
      <trkpt lat="44.86412" lon="4.68376">
        <ele>668.56</ele>
        <time>2021-03-21T12:19:34.999Z</time>
      </trkpt>
      <trkpt lat="44.86407" lon="4.68335">
        <ele>665.02</ele>
        <time>2021-03-21T12:20:03.641Z</time>
      </trkpt>
      <trkpt lat="44.86407" lon="4.68329">
        <ele>664.6</ele>
        <time>2021-03-21T12:20:34.058Z</time>
      </trkpt>
      <trkpt lat="44.86398" lon="4.68299">
        <ele>661.62</ele>
        <time>2021-03-21T12:20:53.002Z</time>
      </trkpt>
      <trkpt lat="44.86382" lon="4.68272">
        <ele>658.87</ele>
        <time>2021-03-21T12:21:12.999Z</time>
      </trkpt>
      <trkpt lat="44.86359" lon="4.68234">
        <ele>657</ele>
        <time>2021-03-21T12:21:40.122Z</time>
      </trkpt>
      <trkpt lat="44.86343" lon="4.68213">
        <ele>655.78</ele>
        <time>2021-03-21T12:21:58.999Z</time>
      </trkpt>
      <trkpt lat="44.86329" lon="4.68204">
        <ele>653.87</ele>
        <time>2021-03-21T12:22:19.999Z</time>
      </trkpt>
      <trkpt lat="44.86307" lon="4.68185">
        <ele>650.59</ele>
        <time>2021-03-21T12:22:38.542Z</time>
      </trkpt>
      <trkpt lat="44.86285" lon="4.68143">
        <ele>648.05</ele>
        <time>2021-03-21T12:23:06.172Z</time>
      </trkpt>
      <trkpt lat="44.86273" lon="4.68113">
        <ele>647.06</ele>
        <time>2021-03-21T12:23:25.999Z</time>
      </trkpt>
      <trkpt lat="44.86275" lon="4.68079">
        <ele>648.86</ele>
        <time>2021-03-21T12:23:45.999Z</time>
      </trkpt>
      <trkpt lat="44.86298" lon="4.68057">
        <ele>650.25</ele>
        <time>2021-03-21T12:24:05.999Z</time>
      </trkpt>
      <trkpt lat="44.86285" lon="4.68019">
        <ele>649.02</ele>
        <time>2021-03-21T12:24:24.855Z</time>
      </trkpt>
      <trkpt lat="44.86267" lon="4.67981">
        <ele>649.87</ele>
        <time>2021-03-21T12:24:53.344Z</time>
      </trkpt>
      <trkpt lat="44.86281" lon="4.67954">
        <ele>650.65</ele>
        <time>2021-03-21T12:25:12.002Z</time>
      </trkpt>
      <trkpt lat="44.86294" lon="4.67923">
        <ele>651.51</ele>
        <time>2021-03-21T12:25:32.000Z</time>
      </trkpt>
      <trkpt lat="44.86306" lon="4.67887">
        <ele>653.37</ele>
        <time>2021-03-21T12:25:51.079Z</time>
      </trkpt>
      <trkpt lat="44.86322" lon="4.67862">
        <ele>653.6</ele>
        <time>2021-03-21T12:26:19.000Z</time>
      </trkpt>
      <trkpt lat="44.86343" lon="4.67842">
        <ele>651.85</ele>
        <time>2021-03-21T12:26:37.534Z</time>
      </trkpt>
      <trkpt lat="44.86358" lon="4.67814">
        <ele>650.98</ele>
        <time>2021-03-21T12:26:57.000Z</time>
      </trkpt>
      <trkpt lat="44.86365" lon="4.67784">
        <ele>651.21</ele>
        <time>2021-03-21T12:27:17.000Z</time>
      </trkpt>
      <trkpt lat="44.86357" lon="4.67747">
        <ele>653.37</ele>
        <time>2021-03-21T12:27:44.797Z</time>
      </trkpt>
      <trkpt lat="44.86346" lon="4.67717">
        <ele>653.84</ele>
        <time>2021-03-21T12:28:03.355Z</time>
      </trkpt>
      <trkpt lat="44.86335" lon="4.67686">
        <ele>652.24</ele>
        <time>2021-03-21T12:28:22.000Z</time>
      </trkpt>
      <trkpt lat="44.8632" lon="4.67661">
        <ele>651.8</ele>
        <time>2021-03-21T12:28:40.840Z</time>
      </trkpt>
      <trkpt lat="44.86295" lon="4.67626">
        <ele>651.71</ele>
        <time>2021-03-21T12:29:10.000Z</time>
      </trkpt>
      <trkpt lat="44.86279" lon="4.67603">
        <ele>651.71</ele>
        <time>2021-03-21T12:29:30.000Z</time>
      </trkpt>
      <trkpt lat="44.86262" lon="4.67577">
        <ele>651.67</ele>
        <time>2021-03-21T12:29:48.976Z</time>
      </trkpt>
      <trkpt lat="44.86249" lon="4.6755">
        <ele>650.94</ele>
        <time>2021-03-21T12:30:08.000Z</time>
      </trkpt>
      <trkpt lat="44.86232" lon="4.67504">
        <ele>649.21</ele>
        <time>2021-03-21T12:30:36.197Z</time>
      </trkpt>
      <trkpt lat="44.86217" lon="4.67478">
        <ele>648.5</ele>
        <time>2021-03-21T12:30:54.837Z</time>
      </trkpt>
      <trkpt lat="44.86199" lon="4.67457">
        <ele>648.06</ele>
        <time>2021-03-21T12:31:14.000Z</time>
      </trkpt>
      <trkpt lat="44.86182" lon="4.67441">
        <ele>647.31</ele>
        <time>2021-03-21T12:31:32.943Z</time>
      </trkpt>
      <trkpt lat="44.86175" lon="4.67413">
        <ele>644.59</ele>
        <time>2021-03-21T12:31:52.122Z</time>
      </trkpt>
      <trkpt lat="44.86151" lon="4.67381">
        <ele>640.2</ele>
        <time>2021-03-21T12:32:20.137Z</time>
      </trkpt>
      <trkpt lat="44.86141" lon="4.67359">
        <ele>636.83</ele>
        <time>2021-03-21T12:32:39.000Z</time>
      </trkpt>
      <trkpt lat="44.86121" lon="4.67346">
        <ele>634.23</ele>
        <time>2021-03-21T12:32:57.103Z</time>
      </trkpt>
      <trkpt lat="44.86101" lon="4.67342">
        <ele>633.25</ele>
        <time>2021-03-21T12:33:15.801Z</time>
      </trkpt>
      <trkpt lat="44.8607" lon="4.67327">
        <ele>633.74</ele>
        <time>2021-03-21T12:33:44.000Z</time>
      </trkpt>
      <trkpt lat="44.86058" lon="4.67293">
        <ele>633.08</ele>
        <time>2021-03-21T12:34:03.216Z</time>
      </trkpt>
      <trkpt lat="44.86053" lon="4.67257">
        <ele>631.94</ele>
        <time>2021-03-21T12:34:21.513Z</time>
      </trkpt>
      <trkpt lat="44.86049" lon="4.6722">
        <ele>630.47</ele>
        <time>2021-03-21T12:34:39.800Z</time>
      </trkpt>
      <trkpt lat="44.86042" lon="4.67178">
        <ele>629.64</ele>
        <time>2021-03-21T12:35:08.439Z</time>
      </trkpt>
      <trkpt lat="44.86034" lon="4.67145">
        <ele>628.15</ele>
        <time>2021-03-21T12:35:28.397Z</time>
      </trkpt>
      <trkpt lat="44.8602" lon="4.67115">
        <ele>626.75</ele>
        <time>2021-03-21T12:35:47.614Z</time>
      </trkpt>
      <trkpt lat="44.86008" lon="4.67084">
        <ele>624.49</ele>
        <time>2021-03-21T12:36:06.781Z</time>
      </trkpt>
      <trkpt lat="44.85991" lon="4.67038">
        <ele>623.09</ele>
        <time>2021-03-21T12:36:35.258Z</time>
      </trkpt>
      <trkpt lat="44.85982" lon="4.67">
        <ele>622.32</ele>
        <time>2021-03-21T12:36:53.779Z</time>
      </trkpt>
      <trkpt lat="44.8598" lon="4.66968">
        <ele>621.58</ele>
        <time>2021-03-21T12:37:11.962Z</time>
      </trkpt>
      <trkpt lat="44.85989" lon="4.6694">
        <ele>619.66</ele>
        <time>2021-03-21T12:37:30.059Z</time>
      </trkpt>
      <trkpt lat="44.85985" lon="4.66895">
        <ele>621.01</ele>
        <time>2021-03-21T12:37:59.999Z</time>
      </trkpt>
      <trkpt lat="44.85967" lon="4.66875">
        <ele>624.64</ele>
        <time>2021-03-21T12:38:18.475Z</time>
      </trkpt>
      <trkpt lat="44.85944" lon="4.66866">
        <ele>628.35</ele>
        <time>2021-03-21T12:38:38.003Z</time>
      </trkpt>
      <trkpt lat="44.85922" lon="4.66856">
        <ele>630.79</ele>
        <time>2021-03-21T12:38:56.999Z</time>
      </trkpt>
      <trkpt lat="44.85902" lon="4.66845">
        <ele>631.49</ele>
        <time>2021-03-21T12:39:15.197Z</time>
      </trkpt>
      <trkpt lat="44.85867" lon="4.6684">
        <ele>632.08</ele>
        <time>2021-03-21T12:39:43.999Z</time>
      </trkpt>
      <trkpt lat="44.85845" lon="4.66839">
        <ele>631.93</ele>
        <time>2021-03-21T12:40:02.824Z</time>
      </trkpt>
      <trkpt lat="44.8582" lon="4.66847">
        <ele>632.83</ele>
        <time>2021-03-21T12:40:22.999Z</time>
      </trkpt>
      <trkpt lat="44.85791" lon="4.66847">
        <ele>631.79</ele>
        <time>2021-03-21T12:40:42.939Z</time>
      </trkpt>
      <trkpt lat="44.85752" lon="4.66848">
        <ele>630.36</ele>
        <time>2021-03-21T12:41:12.134Z</time>
      </trkpt>
      <trkpt lat="44.85726" lon="4.66858">
        <ele>632.73</ele>
        <time>2021-03-21T12:41:31.035Z</time>
      </trkpt>
      <trkpt lat="44.85704" lon="4.66865">
        <ele>634.37</ele>
        <time>2021-03-21T12:41:49.602Z</time>
      </trkpt>
      <trkpt lat="44.85678" lon="4.66857">
        <ele>632</ele>
        <time>2021-03-21T12:42:08.598Z</time>
      </trkpt>
      <trkpt lat="44.85641" lon="4.66845">
        <ele>629.13</ele>
        <time>2021-03-21T12:42:37.493Z</time>
      </trkpt>
      <trkpt lat="44.8562" lon="4.66844">
        <ele>629.25</ele>
        <time>2021-03-21T12:42:55.524Z</time>
      </trkpt>
      <trkpt lat="44.85597" lon="4.66839">
        <ele>627.9</ele>
        <time>2021-03-21T12:43:14.999Z</time>
      </trkpt>
      <trkpt lat="44.85569" lon="4.66838">
        <ele>625.05</ele>
        <time>2021-03-21T12:43:34.877Z</time>
      </trkpt>
      <trkpt lat="44.85537" lon="4.66847">
        <ele>621.02</ele>
        <time>2021-03-21T12:44:03.999Z</time>
      </trkpt>
      <trkpt lat="44.85517" lon="4.66864">
        <ele>619</ele>
        <time>2021-03-21T12:44:22.503Z</time>
      </trkpt>
      <trkpt lat="44.85499" lon="4.6689">
        <ele>617.62</ele>
        <time>2021-03-21T12:44:42.999Z</time>
      </trkpt>
      <trkpt lat="44.85493" lon="4.66916">
        <ele>619.01</ele>
        <time>2021-03-21T12:45:01.476Z</time>
      </trkpt>
      <trkpt lat="44.85472" lon="4.6695">
        <ele>615.82</ele>
        <time>2021-03-21T12:45:29.256Z</time>
      </trkpt>
      <trkpt lat="44.85455" lon="4.66965">
        <ele>611.82</ele>
        <time>2021-03-21T12:45:47.583Z</time>
      </trkpt>
      <trkpt lat="44.85441" lon="4.66986">
        <ele>609.26</ele>
        <time>2021-03-21T12:46:06.999Z</time>
      </trkpt>
      <trkpt lat="44.85435" lon="4.67015">
        <ele>609.36</ele>
        <time>2021-03-21T12:46:25.338Z</time>
      </trkpt>
      <trkpt lat="44.85422" lon="4.67041">
        <ele>607.1</ele>
        <time>2021-03-21T12:46:44.018Z</time>
      </trkpt>
      <trkpt lat="44.85392" lon="4.67071">
        <ele>599.44</ele>
        <time>2021-03-21T12:47:13.355Z</time>
      </trkpt>
      <trkpt lat="44.85383" lon="4.67103">
        <ele>598.39</ele>
        <time>2021-03-21T12:47:32.937Z</time>
      </trkpt>
      <trkpt lat="44.8538" lon="4.67132">
        <ele>599.53</ele>
        <time>2021-03-21T12:47:51.496Z</time>
      </trkpt>
      <trkpt lat="44.85382" lon="4.67157">
        <ele>601.56</ele>
        <time>2021-03-21T12:48:10.554Z</time>
      </trkpt>
      <trkpt lat="44.85347" lon="4.67153">
        <ele>596.84</ele>
        <time>2021-03-21T12:48:39.000Z</time>
      </trkpt>
      <trkpt lat="44.85321" lon="4.67141">
        <ele>592.81</ele>
        <time>2021-03-21T12:48:57.637Z</time>
      </trkpt>
      <trkpt lat="44.85297" lon="4.67124">
        <ele>588.3</ele>
        <time>2021-03-21T12:49:16.034Z</time>
      </trkpt>
      <trkpt lat="44.85278" lon="4.67117">
        <ele>586.17</ele>
        <time>2021-03-21T12:49:34.482Z</time>
      </trkpt>
      <trkpt lat="44.85243" lon="4.67114">
        <ele>585.82</ele>
        <time>2021-03-21T12:50:02.778Z</time>
      </trkpt>
      <trkpt lat="44.85219" lon="4.67102">
        <ele>585.06</ele>
        <time>2021-03-21T12:50:21.656Z</time>
      </trkpt>
      <trkpt lat="44.852" lon="4.67098">
        <ele>586.69</ele>
        <time>2021-03-21T12:50:40.613Z</time>
      </trkpt>
      <trkpt lat="44.85175" lon="4.67085">
        <ele>587.86</ele>
        <time>2021-03-21T12:50:58.902Z</time>
      </trkpt>
      <trkpt lat="44.85148" lon="4.67061">
        <ele>587.96</ele>
        <time>2021-03-21T12:51:26.779Z</time>
      </trkpt>
      <trkpt lat="44.85135" lon="4.67032">
        <ele>584.58</ele>
        <time>2021-03-21T12:51:45.858Z</time>
      </trkpt>
      <trkpt lat="44.85119" lon="4.67009">
        <ele>583.78</ele>
        <time>2021-03-21T12:52:04.557Z</time>
      </trkpt>
      <trkpt lat="44.85102" lon="4.6699">
        <ele>584.64</ele>
        <time>2021-03-21T12:52:23.033Z</time>
      </trkpt>
      <trkpt lat="44.85079" lon="4.66951">
        <ele>582.63</ele>
        <time>2021-03-21T12:52:51.026Z</time>
      </trkpt>
      <trkpt lat="44.85065" lon="4.66929">
        <ele>581.67</ele>
        <time>2021-03-21T12:53:10.037Z</time>
      </trkpt>
      <trkpt lat="44.85043" lon="4.66921">
        <ele>584.03</ele>
        <time>2021-03-21T12:53:29.037Z</time>
      </trkpt>
      <trkpt lat="44.85021" lon="4.66914">
        <ele>586.22</ele>
        <time>2021-03-21T12:53:47.145Z</time>
      </trkpt>
      <trkpt lat="44.85001" lon="4.66905">
        <ele>587.37</ele>
        <time>2021-03-21T12:54:05.343Z</time>
      </trkpt>
      <trkpt lat="44.84971" lon="4.66897">
        <ele>589.76</ele>
        <time>2021-03-21T12:54:34.000Z</time>
      </trkpt>
      <trkpt lat="44.84947" lon="4.66891">
        <ele>591.47</ele>
        <time>2021-03-21T12:54:52.257Z</time>
      </trkpt>
      <trkpt lat="44.84929" lon="4.66882">
        <ele>591.65</ele>
        <time>2021-03-21T12:55:11.000Z</time>
      </trkpt>
      <trkpt lat="44.84907" lon="4.66874">
        <ele>592.55</ele>
        <time>2021-03-21T12:55:31.000Z</time>
      </trkpt>
      <trkpt lat="44.84875" lon="4.66857">
        <ele>592.9</ele>
        <time>2021-03-21T12:56:00.057Z</time>
      </trkpt>
      <trkpt lat="44.8486" lon="4.6684">
        <ele>590.91</ele>
        <time>2021-03-21T12:56:18.475Z</time>
      </trkpt>
      <trkpt lat="44.84838" lon="4.66822">
        <ele>589.77</ele>
        <time>2021-03-21T12:56:37.005Z</time>
      </trkpt>
      <trkpt lat="44.84815" lon="4.6681">
        <ele>590.15</ele>
        <time>2021-03-21T12:56:55.981Z</time>
      </trkpt>
      <trkpt lat="44.84782" lon="4.668">
        <ele>593.29</ele>
        <time>2021-03-21T12:57:24.329Z</time>
      </trkpt>
      <trkpt lat="44.8477" lon="4.66792">
        <ele>593.39</ele>
        <time>2021-03-21T12:57:42.954Z</time>
      </trkpt>
      <trkpt lat="44.84755" lon="4.66777">
        <ele>592.28</ele>
        <time>2021-03-21T12:58:01.393Z</time>
      </trkpt>
      <trkpt lat="44.84735" lon="4.66758">
        <ele>591.2</ele>
        <time>2021-03-21T12:58:20.502Z</time>
      </trkpt>
      <trkpt lat="44.84705" lon="4.66735">
        <ele>590.58</ele>
        <time>2021-03-21T12:58:48.976Z</time>
      </trkpt>
      <trkpt lat="44.84686" lon="4.66716">
        <ele>587.89</ele>
        <time>2021-03-21T12:59:07.736Z</time>
      </trkpt>
      <trkpt lat="44.84669" lon="4.66702">
        <ele>584.16</ele>
        <time>2021-03-21T12:59:26.735Z</time>
      </trkpt>
      <trkpt lat="44.84667" lon="4.66686">
        <ele>580.7</ele>
        <time>2021-03-21T12:59:45.040Z</time>
      </trkpt>
      <trkpt lat="44.84646" lon="4.66681">
        <ele>576.66</ele>
        <time>2021-03-21T13:00:16.659Z</time>
      </trkpt>
      <trkpt lat="44.84631" lon="4.66674">
        <ele>571.92</ele>
        <time>2021-03-21T13:00:35.999Z</time>
      </trkpt>
      <trkpt lat="44.84614" lon="4.6668">
        <ele>569.18</ele>
        <time>2021-03-21T13:00:54.523Z</time>
      </trkpt>
      <trkpt lat="44.84607" lon="4.66685">
        <ele>568.46</ele>
        <time>2021-03-21T13:01:14.999Z</time>
      </trkpt>
      <trkpt lat="44.84603" lon="4.66688">
        <ele>568.17</ele>
        <time>2021-03-21T13:01:35.999Z</time>
      </trkpt>
      <trkpt lat="44.84583" lon="4.66704">
        <ele>566.56</ele>
        <time>2021-03-21T13:02:04.655Z</time>
      </trkpt>
      <trkpt lat="44.84562" lon="4.66718">
        <ele>564.07</ele>
        <time>2021-03-21T13:02:23.743Z</time>
      </trkpt>
      <trkpt lat="44.84549" lon="4.66732">
        <ele>563.61</ele>
        <time>2021-03-21T13:02:42.761Z</time>
      </trkpt>
      <trkpt lat="44.84527" lon="4.66748">
        <ele>560.24</ele>
        <time>2021-03-21T13:03:00.999Z</time>
      </trkpt>
      <trkpt lat="44.84509" lon="4.6677">
        <ele>560.61</ele>
        <time>2021-03-21T13:03:28.917Z</time>
      </trkpt>
      <trkpt lat="44.84491" lon="4.66785">
        <ele>559.35</ele>
        <time>2021-03-21T13:03:47.902Z</time>
      </trkpt>
      <trkpt lat="44.84475" lon="4.66793">
        <ele>555.48</ele>
        <time>2021-03-21T13:04:06.620Z</time>
      </trkpt>
      <trkpt lat="44.84461" lon="4.66801">
        <ele>551.65</ele>
        <time>2021-03-21T13:04:25.999Z</time>
      </trkpt>
      <trkpt lat="44.8444" lon="4.66835">
        <ele>549.03</ele>
        <time>2021-03-21T13:04:54.013Z</time>
      </trkpt>
      <trkpt lat="44.84434" lon="4.66859">
        <ele>548.95</ele>
        <time>2021-03-21T13:05:12.999Z</time>
      </trkpt>
      <trkpt lat="44.84429" lon="4.66883">
        <ele>548.61</ele>
        <time>2021-03-21T13:05:31.519Z</time>
      </trkpt>
      <trkpt lat="44.84426" lon="4.66909">
        <ele>548.4</ele>
        <time>2021-03-21T13:05:49.924Z</time>
      </trkpt>
      <trkpt lat="44.84418" lon="4.66927">
        <ele>545.81</ele>
        <time>2021-03-21T13:06:18.999Z</time>
      </trkpt>
      <trkpt lat="44.84422" lon="4.66924">
        <ele>547.45</ele>
        <time>2021-03-21T13:07:18.999Z</time>
      </trkpt>
      <trkpt lat="44.84411" lon="4.66953">
        <ele>544.58</ele>
        <time>2021-03-21T13:08:45.419Z</time>
      </trkpt>
      <trkpt lat="44.84399" lon="4.66981">
        <ele>541.42</ele>
        <time>2021-03-21T13:09:14.474Z</time>
      </trkpt>
      <trkpt lat="44.84385" lon="4.67001">
        <ele>536.6</ele>
        <time>2021-03-21T13:09:34.455Z</time>
      </trkpt>
      <trkpt lat="44.84376" lon="4.67007">
        <ele>533.49</ele>
        <time>2021-03-21T13:09:53.681Z</time>
      </trkpt>
      <trkpt lat="44.84361" lon="4.67018">
        <ele>528.4</ele>
        <time>2021-03-21T13:10:13.000Z</time>
      </trkpt>
      <trkpt lat="44.8434" lon="4.67033">
        <ele>522.56</ele>
        <time>2021-03-21T13:10:33.006Z</time>
      </trkpt>
      <trkpt lat="44.8433" lon="4.67055">
        <ele>521.74</ele>
        <time>2021-03-21T13:11:03.000Z</time>
      </trkpt>
      <trkpt lat="44.84317" lon="4.67076">
        <ele>518.98</ele>
        <time>2021-03-21T13:11:23.000Z</time>
      </trkpt>
      <trkpt lat="44.84305" lon="4.67092">
        <ele>515.48</ele>
        <time>2021-03-21T13:11:42.000Z</time>
      </trkpt>
      <trkpt lat="44.84298" lon="4.671">
        <ele>513.31</ele>
        <time>2021-03-21T13:12:09.000Z</time>
      </trkpt>
      <trkpt lat="44.84271" lon="4.67106">
        <ele>507.98</ele>
        <time>2021-03-21T13:12:38.035Z</time>
      </trkpt>
      <trkpt lat="44.84262" lon="4.67119">
        <ele>504.94</ele>
        <time>2021-03-21T13:12:56.903Z</time>
      </trkpt>
      <trkpt lat="44.84246" lon="4.67112">
        <ele>502.78</ele>
        <time>2021-03-21T13:13:16.000Z</time>
      </trkpt>
      <trkpt lat="44.84231" lon="4.67122">
        <ele>499.25</ele>
        <time>2021-03-21T13:13:34.639Z</time>
      </trkpt>
      <trkpt lat="44.84206" lon="4.67117">
        <ele>495.84</ele>
        <time>2021-03-21T13:14:03.074Z</time>
      </trkpt>
      <trkpt lat="44.8422" lon="4.67141">
        <ele>494.37</ele>
        <time>2021-03-21T13:14:21.643Z</time>
      </trkpt>
      <trkpt lat="44.84236" lon="4.6716">
        <ele>493.05</ele>
        <time>2021-03-21T13:14:40.439Z</time>
      </trkpt>
      <trkpt lat="44.84253" lon="4.67173">
        <ele>492.91</ele>
        <time>2021-03-21T13:15:00.000Z</time>
      </trkpt>
      <trkpt lat="44.84283" lon="4.67172">
        <ele>497.36</ele>
        <time>2021-03-21T13:15:29.000Z</time>
      </trkpt>
      <trkpt lat="44.84291" lon="4.67175">
        <ele>497.8</ele>
        <time>2021-03-21T13:15:49.000Z</time>
      </trkpt>
      <trkpt lat="44.84285" lon="4.67194">
        <ele>491.41</ele>
        <time>2021-03-21T13:16:07.462Z</time>
      </trkpt>
      <trkpt lat="44.84267" lon="4.67213">
        <ele>482.73</ele>
        <time>2021-03-21T13:16:26.717Z</time>
      </trkpt>
      <trkpt lat="44.84242" lon="4.67218">
        <ele>476.83</ele>
        <time>2021-03-21T13:16:55.000Z</time>
      </trkpt>
      <trkpt lat="44.84221" lon="4.67214">
        <ele>474.8</ele>
        <time>2021-03-21T13:17:13.461Z</time>
      </trkpt>
      <trkpt lat="44.84201" lon="4.67208">
        <ele>473.69</ele>
        <time>2021-03-21T13:17:31.841Z</time>
      </trkpt>
      <trkpt lat="44.84183" lon="4.67201">
        <ele>472.5</ele>
        <time>2021-03-21T13:17:50.058Z</time>
      </trkpt>
      <trkpt lat="44.84169" lon="4.67194">
        <ele>471.03</ele>
        <time>2021-03-21T13:18:09.000Z</time>
      </trkpt>
      <trkpt lat="44.84146" lon="4.67186">
        <ele>466.61</ele>
        <time>2021-03-21T13:18:37.999Z</time>
      </trkpt>
      <trkpt lat="44.84124" lon="4.67179">
        <ele>461.17</ele>
        <time>2021-03-21T13:18:57.999Z</time>
      </trkpt>
      <trkpt lat="44.84106" lon="4.67174">
        <ele>455.62</ele>
        <time>2021-03-21T13:19:16.817Z</time>
      </trkpt>
      <trkpt lat="44.84092" lon="4.67164">
        <ele>452.73</ele>
        <time>2021-03-21T13:19:35.997Z</time>
      </trkpt>
      <trkpt lat="44.84065" lon="4.67152">
        <ele>445.98</ele>
        <time>2021-03-21T13:20:04.999Z</time>
      </trkpt>
      <trkpt lat="44.84055" lon="4.67128">
        <ele>447.36</ele>
        <time>2021-03-21T13:20:23.999Z</time>
      </trkpt>
      <trkpt lat="44.84044" lon="4.67121">
        <ele>444.63</ele>
        <time>2021-03-21T13:20:42.461Z</time>
      </trkpt>
      <trkpt lat="44.84031" lon="4.67107">
        <ele>441.79</ele>
        <time>2021-03-21T13:21:00.760Z</time>
      </trkpt>
      <trkpt lat="44.84011" lon="4.6708">
        <ele>438.23</ele>
        <time>2021-03-21T13:21:29.075Z</time>
      </trkpt>
      <trkpt lat="44.84002" lon="4.67053">
        <ele>439.28</ele>
        <time>2021-03-21T13:21:47.374Z</time>
      </trkpt>
      <trkpt lat="44.83997" lon="4.67046">
        <ele>438.71</ele>
        <time>2021-03-21T13:22:06.999Z</time>
      </trkpt>
      <trkpt lat="44.83978" lon="4.67042">
        <ele>432.77</ele>
        <time>2021-03-21T13:22:25.599Z</time>
      </trkpt>
      <trkpt lat="44.83946" lon="4.67037">
        <ele>423.48</ele>
        <time>2021-03-21T13:22:54.999Z</time>
      </trkpt>
      <trkpt lat="44.83927" lon="4.67035">
        <ele>418.77</ele>
        <time>2021-03-21T13:23:13.424Z</time>
      </trkpt>
      <trkpt lat="44.83908" lon="4.67032">
        <ele>415.05</ele>
        <time>2021-03-21T13:23:33.999Z</time>
      </trkpt>
      <trkpt lat="44.83897" lon="4.67039">
        <ele>409.98</ele>
        <time>2021-03-21T13:23:52.999Z</time>
      </trkpt>
      <trkpt lat="44.83871" lon="4.67045">
        <ele>403.09</ele>
        <time>2021-03-21T13:24:21.999Z</time>
      </trkpt>
      <trkpt lat="44.83855" lon="4.67047">
        <ele>401.6</ele>
      </trkpt>
      <trkpt lat="44.83833" lon="4.6704">
        <ele>399.4</ele>
      </trkpt>
      <trkpt lat="44.83815" lon="4.6704">
        <ele>398.1</ele>
      </trkpt>
      <trkpt lat="44.83781" lon="4.67049">
        <ele>393.2</ele>
      </trkpt>
      <trkpt lat="44.83749" lon="4.67046">
        <ele>391.8</ele>
      </trkpt>
      <trkpt lat="44.83721" lon="4.67045">
        <ele>380.51</ele>
        <time>2021-03-21T13:32:28.258Z</time>
      </trkpt>
      <trkpt lat="44.83694" lon="4.67045">
        <ele>376.08</ele>
        <time>2021-03-21T13:32:46.615Z</time>
      </trkpt>
      <trkpt lat="44.83669" lon="4.67038">
        <ele>374.22</ele>
        <time>2021-03-21T13:33:56.000Z</time>
      </trkpt>
      <trkpt lat="44.8368" lon="4.67058">
        <ele>368.85</ele>
        <time>2021-03-21T13:34:14.838Z</time>
      </trkpt>
      <trkpt lat="44.83691" lon="4.67079">
        <ele>363.08</ele>
        <time>2021-03-21T13:34:34.417Z</time>
      </trkpt>
      <trkpt lat="44.83709" lon="4.67095">
        <ele>359.78</ele>
        <time>2021-03-21T13:34:54.000Z</time>
      </trkpt>
      <trkpt lat="44.8371" lon="4.67107">
        <ele>354.6</ele>
        <time>2021-03-21T13:35:22.641Z</time>
      </trkpt>
      <trkpt lat="44.83687" lon="4.67106">
        <ele>351.09</ele>
        <time>2021-03-21T13:35:43.000Z</time>
      </trkpt>
      <trkpt lat="44.83665" lon="4.67104">
        <ele>348.47</ele>
        <time>2021-03-21T13:36:02.876Z</time>
      </trkpt>
      <trkpt lat="44.83645" lon="4.67099">
        <ele>346.89</ele>
        <time>2021-03-21T13:36:21.594Z</time>
      </trkpt>
      <trkpt lat="44.83614" lon="4.671">
        <ele>341.06</ele>
        <time>2021-03-21T13:36:50.622Z</time>
      </trkpt>
      <trkpt lat="44.83595" lon="4.67096">
        <ele>339.24</ele>
        <time>2021-03-21T13:37:11.000Z</time>
      </trkpt>
      <trkpt lat="44.83577" lon="4.67094">
        <ele>336.78</ele>
        <time>2021-03-21T13:37:29.899Z</time>
      </trkpt>
      <trkpt lat="44.83555" lon="4.67094">
        <ele>332.87</ele>
        <time>2021-03-21T13:37:49.000Z</time>
      </trkpt>
      <trkpt lat="44.83526" lon="4.67095">
        <ele>327.24</ele>
        <time>2021-03-21T13:38:17.445Z</time>
      </trkpt>
      <trkpt lat="44.83518" lon="4.67093">
        <ele>326.86</ele>
        <time>2021-03-21T13:38:36.000Z</time>
      </trkpt>
      <trkpt lat="44.83509" lon="4.671">
        <ele>322.15</ele>
        <time>2021-03-21T13:38:55.377Z</time>
      </trkpt>
      <trkpt lat="44.83493" lon="4.67106">
        <ele>316.45</ele>
        <time>2021-03-21T13:39:14.034Z</time>
      </trkpt>
      <trkpt lat="44.8347" lon="4.67107">
        <ele>312.29</ele>
        <time>2021-03-21T13:39:42.440Z</time>
      </trkpt>
      <trkpt lat="44.83447" lon="4.67116">
        <ele>304.75</ele>
        <time>2021-03-21T13:40:00.682Z</time>
      </trkpt>
      <trkpt lat="44.83425" lon="4.67111">
        <ele>303.56</ele>
        <time>2021-03-21T13:40:18.999Z</time>
      </trkpt>
      <trkpt lat="44.8341" lon="4.67105">
        <ele>303.33</ele>
        <time>2021-03-21T13:40:37.097Z</time>
      </trkpt>
      <trkpt lat="44.83393" lon="4.67112">
        <ele>297.8</ele>
        <time>2021-03-21T13:40:56.999Z</time>
      </trkpt>
      <trkpt lat="44.83371" lon="4.67126">
        <ele>288.73</ele>
        <time>2021-03-21T13:41:24.692Z</time>
      </trkpt>
      <trkpt lat="44.83359" lon="4.67125">
        <ele>286.94</ele>
        <time>2021-03-21T13:42:01.402Z</time>
      </trkpt>
      <trkpt lat="44.83337" lon="4.67124">
        <ele>283.59</ele>
        <time>2021-03-21T13:42:20.179Z</time>
      </trkpt>
      <trkpt lat="44.83331" lon="4.67119">
        <ele>284.15</ele>
        <time>2021-03-21T13:42:39.316Z</time>
      </trkpt>
      <trkpt lat="44.83307" lon="4.67106">
        <ele>282.63</ele>
        <time>2021-03-21T13:43:07.494Z</time>
      </trkpt>
      <trkpt lat="44.83293" lon="4.67097">
        <ele>281.6</ele>
        <time>2021-03-21T13:43:25.999Z</time>
      </trkpt>
      <trkpt lat="44.83273" lon="4.67088">
        <ele>277.6</ele>
        <time>2021-03-21T13:43:45.138Z</time>
      </trkpt>
      <trkpt lat="44.83262" lon="4.67093">
        <ele>272.93</ele>
        <time>2021-03-21T13:44:04.999Z</time>
      </trkpt>
      <trkpt lat="44.83263" lon="4.6709">
        <ele>273.82</ele>
        <time>2021-03-21T13:45:05.999Z</time>
      </trkpt>
      <trkpt lat="44.83262" lon="4.67095">
        <ele>272.27</ele>
        <time>2021-03-21T13:45:39.999Z</time>
      </trkpt>
      <trkpt lat="44.83262" lon="4.67091">
        <ele>273.41</ele>
        <time>2021-03-21T13:47:24.999Z</time>
      </trkpt>
      <trkpt lat="44.83262" lon="4.67087">
        <ele>274.37</ele>
        <time>2021-03-21T13:49:45.000Z</time>
      </trkpt>
      <trkpt lat="44.83263" lon="4.67094">
        <ele>272.64</ele>
        <time>2021-03-21T13:50:04.000Z</time>
      </trkpt>
      <trkpt lat="44.83264" lon="4.67109">
        <ele>269.39</ele>
        <time>2021-03-21T13:50:24.000Z</time>
      </trkpt>
      <trkpt lat="44.83265" lon="4.67128">
        <ele>264.89</ele>
        <time>2021-03-21T13:50:42.534Z</time>
      </trkpt>
      <trkpt lat="44.83259" lon="4.67148">
        <ele>257.78</ele>
        <time>2021-03-21T13:51:10.729Z</time>
      </trkpt>
      <trkpt lat="44.83243" lon="4.67164">
        <ele>248.92</ele>
        <time>2021-03-21T13:51:29.039Z</time>
      </trkpt>
      <trkpt lat="44.83234" lon="4.67185">
        <ele>240.2</ele>
        <time>2021-03-21T13:51:47.377Z</time>
      </trkpt>
      <trkpt lat="44.8323" lon="4.67208">
        <ele>231.57</ele>
        <time>2021-03-21T13:52:07.000Z</time>
      </trkpt>
      <trkpt lat="44.8323" lon="4.67217">
        <ele>228.27</ele>
        <time>2021-03-21T13:52:27.000Z</time>
      </trkpt>
      <trkpt lat="44.83216" lon="4.67272">
        <ele>209.76</ele>
        <time>2021-03-21T13:52:56.520Z</time>
      </trkpt>
      <trkpt lat="44.83221" lon="4.67314">
        <ele>200.58</ele>
        <time>2021-03-21T13:53:15.016Z</time>
      </trkpt>
      <trkpt lat="44.8322" lon="4.6734">
        <ele>194.53</ele>
        <time>2021-03-21T13:53:33.478Z</time>
      </trkpt>
      <trkpt lat="44.83203" lon="4.67341">
        <ele>193.31</ele>
        <time>2021-03-21T13:53:52.617Z</time>
      </trkpt>
      <trkpt lat="44.83192" lon="4.67326">
        <ele>195.42</ele>
        <time>2021-03-21T13:54:50.000Z</time>
      </trkpt>
      <trkpt lat="44.83192" lon="4.67325">
        <ele>195.73</ele>
        <time>2021-03-21T13:55:20.000Z</time>
      </trkpt>
      <trkpt lat="44.83196" lon="4.67328">
        <ele>195.37</ele>
        <time>2021-03-21T13:56:06.000Z</time>
      </trkpt>
      <trkpt lat="44.83202" lon="4.67328">
        <ele>195.9</ele>
        <time>2021-03-21T13:56:52.000Z</time>
      </trkpt>
      <trkpt lat="44.83198" lon="4.67325">
        <ele>196.22</ele>
        <time>2021-03-21T13:58:20.000Z</time>
      </trkpt>
      <trkpt lat="44.83199" lon="4.67323">
        <ele>196.75</ele>
        <time>2021-03-21T14:00:45.999Z</time>
      </trkpt>
      <trkpt lat="44.83197" lon="4.67327">
        <ele>195.75</ele>
        <time>2021-03-21T14:01:26.999Z</time>
      </trkpt>
      <trkpt lat="44.83199" lon="4.67336">
        <ele>194.03</ele>
        <time>2021-03-21T14:02:01.539Z</time>
      </trkpt>
      <trkpt lat="44.83226" lon="4.67376">
        <ele>185.87</ele>
        <time>2021-03-21T14:02:29.522Z</time>
      </trkpt>
      <trkpt lat="44.83249" lon="4.67374">
        <ele>186.17</ele>
        <time>2021-03-21T14:02:47.983Z</time>
      </trkpt>
      <trkpt lat="44.83265" lon="4.67372">
        <ele>186.65</ele>
        <time>2021-03-21T14:03:06.422Z</time>
      </trkpt>
      <trkpt lat="44.83273" lon="4.67387">
        <ele>182.77</ele>
        <time>2021-03-21T14:03:25.441Z</time>
      </trkpt>
      <trkpt lat="44.83244" lon="4.67407">
        <ele>178.68</ele>
        <time>2021-03-21T14:03:53.999Z</time>
      </trkpt>
      <trkpt lat="44.83224" lon="4.67426">
        <ele>175.76</ele>
        <time>2021-03-21T14:04:12.679Z</time>
      </trkpt>
      <trkpt lat="44.83208" lon="4.6745">
        <ele>172.5</ele>
        <time>2021-03-21T14:04:31.999Z</time>
      </trkpt>
      <trkpt lat="44.83192" lon="4.6747">
        <ele>170.27</ele>
        <time>2021-03-21T14:04:50.753Z</time>
      </trkpt>
      <trkpt lat="44.83172" lon="4.67482">
        <ele>169.05</ele>
        <time>2021-03-21T14:05:08.999Z</time>
      </trkpt>
      <trkpt lat="44.83141" lon="4.67504">
        <ele>165.32</ele>
        <time>2021-03-21T14:05:36.679Z</time>
      </trkpt>
      <trkpt lat="44.83125" lon="4.67523">
        <ele>162.62</ele>
        <time>2021-03-21T14:05:55.035Z</time>
      </trkpt>
      <trkpt lat="44.83111" lon="4.67538">
        <ele>160.62</ele>
        <time>2021-03-21T14:06:14.234Z</time>
      </trkpt>
      <trkpt lat="44.83096" lon="4.67556">
        <ele>158.91</ele>
        <time>2021-03-21T14:06:33.584Z</time>
      </trkpt>
      <trkpt lat="44.83065" lon="4.67569">
        <ele>157.36</ele>
        <time>2021-03-21T14:07:02.123Z</time>
      </trkpt>
      <trkpt lat="44.8305" lon="4.67571">
        <ele>157.14</ele>
        <time>2021-03-21T14:07:20.797Z</time>
      </trkpt>
      <trkpt lat="44.83028" lon="4.67575">
        <ele>156.85</ele>
        <time>2021-03-21T14:07:39.497Z</time>
      </trkpt>
      <trkpt lat="44.83008" lon="4.67577">
        <ele>156.54</ele>
        <time>2021-03-21T14:07:57.997Z</time>
      </trkpt>
      <trkpt lat="44.8298" lon="4.67578">
        <ele>155.31</ele>
        <time>2021-03-21T14:08:25.684Z</time>
      </trkpt>
      <trkpt lat="44.82963" lon="4.67587">
        <ele>153.95</ele>
        <time>2021-03-21T14:08:44.999Z</time>
      </trkpt>
      <trkpt lat="44.8294" lon="4.67596">
        <ele>152.06</ele>
        <time>2021-03-21T14:09:03.380Z</time>
      </trkpt>
      <trkpt lat="44.82921" lon="4.67604">
        <ele>150.58</ele>
        <time>2021-03-21T14:09:21.999Z</time>
      </trkpt>
      <trkpt lat="44.82904" lon="4.67605">
        <ele>149.53</ele>
        <time>2021-03-21T14:09:51.999Z</time>
      </trkpt>
      <trkpt lat="44.82897" lon="4.67617">
        <ele>148.76</ele>
        <time>2021-03-21T14:10:11.640Z</time>
      </trkpt>
      <trkpt lat="44.82885" lon="4.67626">
        <ele>147.85</ele>
        <time>2021-03-21T14:10:30.999Z</time>
      </trkpt>
      <trkpt lat="44.82866" lon="4.67639">
        <ele>146.46</ele>
        <time>2021-03-21T14:10:50.000Z</time>
      </trkpt>
      <trkpt lat="44.82833" lon="4.67654">
        <ele>144.24</ele>
        <time>2021-03-21T14:11:17.443Z</time>
      </trkpt>
      <trkpt lat="44.8282" lon="4.67667">
        <ele>142.97</ele>
        <time>2021-03-21T14:11:36.000Z</time>
      </trkpt>
      <trkpt lat="44.82798" lon="4.67678">
        <ele>140.53</ele>
        <time>2021-03-21T14:11:54.698Z</time>
      </trkpt>
      <trkpt lat="44.82778" lon="4.67688">
        <ele>138.42</ele>
        <time>2021-03-21T14:12:12.915Z</time>
      </trkpt>
      <trkpt lat="44.82758" lon="4.677">
        <ele>137.02</ele>
        <time>2021-03-21T14:12:33.000Z</time>
      </trkpt>
      <trkpt lat="44.82739" lon="4.67707">
        <ele>136.67</ele>
        <time>2021-03-21T14:13:03.820Z</time>
      </trkpt>
      <trkpt lat="44.82717" lon="4.67719">
        <ele>136.94</ele>
        <time>2021-03-21T14:13:23.000Z</time>
      </trkpt>
      <trkpt lat="44.82697" lon="4.67733">
        <ele>137.98</ele>
        <time>2021-03-21T14:13:42.015Z</time>
      </trkpt>
      <trkpt lat="44.82677" lon="4.67742">
        <ele>139.66</ele>
        <time>2021-03-21T14:14:01.000Z</time>
      </trkpt>
      <trkpt lat="44.82641" lon="4.67764">
        <ele>145.33</ele>
        <time>2021-03-21T14:14:29.520Z</time>
      </trkpt>
      <trkpt lat="44.82633" lon="4.67779">
        <ele>147.28</ele>
        <time>2021-03-21T14:14:48.000Z</time>
      </trkpt>
      <trkpt lat="44.82635" lon="4.6779">
        <ele>147.12</ele>
        <time>2021-03-21T14:14:59.000Z</time>
      </trkpt>
    </trkseg>
  </trk>
</gpx>